<?xml version="1.0" encoding="UTF-8" standalone="no" ?>
<gpx xmlns="http://www.topografix.com/GPX/1/1" xmlns:xsi="http://www.w3.org/2001/XMLSchema-instance" xsi:schemaLocation="http://www.topografix.com/GPX/1/1 http://www.topografix.com/GPX/1/1/gpx.xsd" version="1.1" creator="VisuGPX - https://www.visugpx.com">
  <metadata>
    <name>Randonnée Vatteport</name>
    <desc><![CDATA[Circuit au départ de Vatteport en passant par Le Londe]]></desc>
  </metadata>
  <wpt lat="49.28634" lon="1.26994">
    <ele>21</ele>
  </wpt>
  <trk>
    <name><![CDATA[Randonnée Vatteport_1]]></name>
    <trkseg>
      <trkpt lat="49.28634" lon="1.26994">
        <ele>21</ele>
        <time>2013-05-07T11:48:20Z</time>
      </trkpt>
      <trkpt lat="49.2864" lon="1.27005">
        <ele>7</ele>
        <time>2013-05-07T11:54:08Z</time>
      </trkpt>
      <trkpt lat="49.28632" lon="1.27011">
        <ele>19</ele>
        <time>2013-05-07T11:55:33Z</time>
      </trkpt>
      <trkpt lat="49.28632" lon="1.27025">
        <ele>19</ele>
        <time>2013-05-07T11:56:04Z</time>
      </trkpt>
      <trkpt lat="49.28632" lon="1.2704">
        <ele>19</ele>
        <time>2013-05-07T11:58:52Z</time>
      </trkpt>
      <trkpt lat="49.28633" lon="1.27055">
        <ele>19</ele>
        <time>2013-05-07T11:59:04Z</time>
      </trkpt>
      <trkpt lat="49.28635" lon="1.27069">
        <ele>19</ele>
        <time>2013-05-07T11:59:15Z</time>
      </trkpt>
      <trkpt lat="49.28635" lon="1.27084">
        <ele>19</ele>
        <time>2013-05-07T11:59:25Z</time>
      </trkpt>
      <trkpt lat="49.28637" lon="1.27099">
        <ele>19</ele>
        <time>2013-05-07T11:59:36Z</time>
      </trkpt>
      <trkpt lat="49.28639" lon="1.27114">
        <ele>19</ele>
        <time>2013-05-07T11:59:45Z</time>
      </trkpt>
      <trkpt lat="49.2864" lon="1.27129">
        <ele>19</ele>
        <time>2013-05-07T11:59:54Z</time>
      </trkpt>
      <trkpt lat="49.28642" lon="1.27144">
        <ele>19</ele>
        <time>2013-05-07T12:00:05Z</time>
      </trkpt>
      <trkpt lat="49.28644" lon="1.27159">
        <ele>19</ele>
        <time>2013-05-07T12:00:14Z</time>
      </trkpt>
      <trkpt lat="49.28646" lon="1.27174">
        <ele>19</ele>
        <time>2013-05-07T12:00:26Z</time>
      </trkpt>
      <trkpt lat="49.28646" lon="1.27189">
        <ele>19</ele>
        <time>2013-05-07T12:00:39Z</time>
      </trkpt>
      <trkpt lat="49.28646" lon="1.27203">
        <ele>19</ele>
        <time>2013-05-07T12:00:50Z</time>
      </trkpt>
      <trkpt lat="49.28647" lon="1.27219">
        <ele>19</ele>
        <time>2013-05-07T12:01:00Z</time>
      </trkpt>
      <trkpt lat="49.28647" lon="1.27233">
        <ele>19</ele>
        <time>2013-05-07T12:01:10Z</time>
      </trkpt>
      <trkpt lat="49.28643" lon="1.27247">
        <ele>25</ele>
        <time>2013-05-07T12:01:19Z</time>
      </trkpt>
      <trkpt lat="49.28642" lon="1.27262">
        <ele>33</ele>
        <time>2013-05-07T12:01:29Z</time>
      </trkpt>
      <trkpt lat="49.28642" lon="1.27276">
        <ele>33</ele>
        <time>2013-05-07T12:01:37Z</time>
      </trkpt>
      <trkpt lat="49.28645" lon="1.2729">
        <ele>33</ele>
        <time>2013-05-07T12:01:44Z</time>
      </trkpt>
      <trkpt lat="49.28645" lon="1.27305">
        <ele>33</ele>
        <time>2013-05-07T12:01:53Z</time>
      </trkpt>
      <trkpt lat="49.28647" lon="1.27318">
        <ele>33</ele>
        <time>2013-05-07T12:02:01Z</time>
      </trkpt>
      <trkpt lat="49.2865" lon="1.27333">
        <ele>33</ele>
        <time>2013-05-07T12:02:08Z</time>
      </trkpt>
      <trkpt lat="49.28653" lon="1.27347">
        <ele>33</ele>
        <time>2013-05-07T12:02:16Z</time>
      </trkpt>
      <trkpt lat="49.28655" lon="1.2736">
        <ele>33</ele>
        <time>2013-05-07T12:02:23Z</time>
      </trkpt>
      <trkpt lat="49.28656" lon="1.27376">
        <ele>33</ele>
        <time>2013-05-07T12:02:31Z</time>
      </trkpt>
      <trkpt lat="49.2866" lon="1.27389">
        <ele>33</ele>
        <time>2013-05-07T12:02:39Z</time>
      </trkpt>
      <trkpt lat="49.28664" lon="1.27402">
        <ele>33</ele>
        <time>2013-05-07T12:02:48Z</time>
      </trkpt>
      <trkpt lat="49.28667" lon="1.27416">
        <ele>33</ele>
        <time>2013-05-07T12:02:58Z</time>
      </trkpt>
      <trkpt lat="49.2867" lon="1.27431">
        <ele>38</ele>
        <time>2013-05-07T12:03:06Z</time>
      </trkpt>
      <trkpt lat="49.28677" lon="1.27442">
        <ele>38</ele>
        <time>2013-05-07T12:03:14Z</time>
      </trkpt>
      <trkpt lat="49.28682" lon="1.27456">
        <ele>51</ele>
        <time>2013-05-07T12:03:27Z</time>
      </trkpt>
      <trkpt lat="49.28687" lon="1.27466">
        <ele>51</ele>
        <time>2013-05-07T12:03:34Z</time>
      </trkpt>
      <trkpt lat="49.28694" lon="1.27477">
        <ele>51</ele>
        <time>2013-05-07T12:03:43Z</time>
      </trkpt>
      <trkpt lat="49.28702" lon="1.27487">
        <ele>43</ele>
        <time>2013-05-07T12:03:52Z</time>
      </trkpt>
      <trkpt lat="49.28709" lon="1.27497">
        <ele>43</ele>
        <time>2013-05-07T12:04:00Z</time>
      </trkpt>
      <trkpt lat="49.28716" lon="1.27507">
        <ele>43</ele>
        <time>2013-05-07T12:04:08Z</time>
      </trkpt>
      <trkpt lat="49.28724" lon="1.27516">
        <ele>43</ele>
        <time>2013-05-07T12:04:16Z</time>
      </trkpt>
      <trkpt lat="49.2873" lon="1.27528">
        <ele>43</ele>
        <time>2013-05-07T12:04:24Z</time>
      </trkpt>
      <trkpt lat="49.28737" lon="1.2754">
        <ele>43</ele>
        <time>2013-05-07T12:04:33Z</time>
      </trkpt>
      <trkpt lat="49.28744" lon="1.27549">
        <ele>43</ele>
        <time>2013-05-07T12:04:44Z</time>
      </trkpt>
      <trkpt lat="49.28754" lon="1.27549">
        <ele>43</ele>
        <time>2013-05-07T12:04:52Z</time>
      </trkpt>
      <trkpt lat="49.28762" lon="1.27542">
        <ele>43</ele>
        <time>2013-05-07T12:05:04Z</time>
      </trkpt>
      <trkpt lat="49.28768" lon="1.27529">
        <ele>43</ele>
        <time>2013-05-07T12:05:15Z</time>
      </trkpt>
      <trkpt lat="49.2877" lon="1.27515">
        <ele>43</ele>
        <time>2013-05-07T12:05:25Z</time>
      </trkpt>
      <trkpt lat="49.28771" lon="1.27501">
        <ele>43</ele>
        <time>2013-05-07T12:05:37Z</time>
      </trkpt>
      <trkpt lat="49.28772" lon="1.27486">
        <ele>52</ele>
        <time>2013-05-07T12:05:51Z</time>
      </trkpt>
      <trkpt lat="49.28781" lon="1.27484">
        <ele>52</ele>
        <time>2013-05-07T12:06:09Z</time>
      </trkpt>
      <trkpt lat="49.28788" lon="1.27494">
        <ele>52</ele>
        <time>2013-05-07T12:06:25Z</time>
      </trkpt>
      <trkpt lat="49.28797" lon="1.27498">
        <ele>58</ele>
        <time>2013-05-07T12:06:40Z</time>
      </trkpt>
      <trkpt lat="49.28806" lon="1.27504">
        <ele>65</ele>
        <time>2013-05-07T12:06:57Z</time>
      </trkpt>
      <trkpt lat="49.28814" lon="1.27512">
        <ele>65</ele>
        <time>2013-05-07T12:07:14Z</time>
      </trkpt>
      <trkpt lat="49.28822" lon="1.27519">
        <ele>74</ele>
        <time>2013-05-07T12:07:30Z</time>
      </trkpt>
      <trkpt lat="49.2883" lon="1.27525">
        <ele>74</ele>
        <time>2013-05-07T12:07:41Z</time>
      </trkpt>
      <trkpt lat="49.28839" lon="1.27529">
        <ele>74</ele>
        <time>2013-05-07T12:07:54Z</time>
      </trkpt>
      <trkpt lat="49.28847" lon="1.27537">
        <ele>74</ele>
        <time>2013-05-07T12:08:05Z</time>
      </trkpt>
      <trkpt lat="49.28855" lon="1.27544">
        <ele>74</ele>
        <time>2013-05-07T12:08:19Z</time>
      </trkpt>
      <trkpt lat="49.28864" lon="1.27549">
        <ele>74</ele>
        <time>2013-05-07T12:08:32Z</time>
      </trkpt>
      <trkpt lat="49.28873" lon="1.27555">
        <ele>74</ele>
        <time>2013-05-07T12:08:48Z</time>
      </trkpt>
      <trkpt lat="49.28882" lon="1.2756">
        <ele>74</ele>
        <time>2013-05-07T12:09:01Z</time>
      </trkpt>
      <trkpt lat="49.2889" lon="1.27566">
        <ele>80</ele>
        <time>2013-05-07T12:09:14Z</time>
      </trkpt>
      <trkpt lat="49.28898" lon="1.27574">
        <ele>80</ele>
        <time>2013-05-07T12:09:27Z</time>
      </trkpt>
      <trkpt lat="49.28907" lon="1.27578">
        <ele>80</ele>
        <time>2013-05-07T12:09:40Z</time>
      </trkpt>
      <trkpt lat="49.28917" lon="1.27579">
        <ele>86</ele>
        <time>2013-05-07T12:09:54Z</time>
      </trkpt>
      <trkpt lat="49.28927" lon="1.27581">
        <ele>86</ele>
        <time>2013-05-07T12:10:08Z</time>
      </trkpt>
      <trkpt lat="49.28936" lon="1.27584">
        <ele>86</ele>
        <time>2013-05-07T12:10:22Z</time>
      </trkpt>
      <trkpt lat="49.28945" lon="1.27581">
        <ele>86</ele>
        <time>2013-05-07T12:10:35Z</time>
      </trkpt>
      <trkpt lat="49.28955" lon="1.27578">
        <ele>86</ele>
        <time>2013-05-07T12:10:47Z</time>
      </trkpt>
      <trkpt lat="49.28964" lon="1.27574">
        <ele>86</ele>
        <time>2013-05-07T12:11:03Z</time>
      </trkpt>
      <trkpt lat="49.28972" lon="1.27569">
        <ele>96</ele>
        <time>2013-05-07T12:11:15Z</time>
      </trkpt>
      <trkpt lat="49.28982" lon="1.27569">
        <ele>96</ele>
        <time>2013-05-07T12:11:30Z</time>
      </trkpt>
      <trkpt lat="49.28988" lon="1.27579">
        <ele>108</ele>
        <time>2013-05-07T12:11:46Z</time>
      </trkpt>
      <trkpt lat="49.28995" lon="1.2759">
        <ele>108</ele>
        <time>2013-05-07T12:12:00Z</time>
      </trkpt>
      <trkpt lat="49.29001" lon="1.27599">
        <ele>108</ele>
        <time>2013-05-07T12:12:14Z</time>
      </trkpt>
      <trkpt lat="49.29009" lon="1.27607">
        <ele>102</ele>
        <time>2013-05-07T12:12:23Z</time>
      </trkpt>
      <trkpt lat="49.29019" lon="1.27608">
        <ele>102</ele>
        <time>2013-05-07T12:12:36Z</time>
      </trkpt>
      <trkpt lat="49.29028" lon="1.27608">
        <ele>102</ele>
        <time>2013-05-07T12:12:50Z</time>
      </trkpt>
      <trkpt lat="49.29038" lon="1.27608">
        <ele>107</ele>
        <time>2013-05-07T12:13:02Z</time>
      </trkpt>
      <trkpt lat="49.29046" lon="1.27602">
        <ele>107</ele>
        <time>2013-05-07T12:13:14Z</time>
      </trkpt>
      <trkpt lat="49.29055" lon="1.27598">
        <ele>115</ele>
        <time>2013-05-07T12:13:27Z</time>
      </trkpt>
      <trkpt lat="49.29063" lon="1.2759">
        <ele>115</ele>
        <time>2013-05-07T12:13:41Z</time>
      </trkpt>
      <trkpt lat="49.29072" lon="1.27586">
        <ele>115</ele>
        <time>2013-05-07T12:13:54Z</time>
      </trkpt>
      <trkpt lat="49.29082" lon="1.27582">
        <ele>115</ele>
        <time>2013-05-07T12:14:10Z</time>
      </trkpt>
      <trkpt lat="49.29091" lon="1.27583">
        <ele>124</ele>
        <time>2013-05-07T12:14:28Z</time>
      </trkpt>
      <trkpt lat="49.29099" lon="1.2759">
        <ele>124</ele>
        <time>2013-05-07T12:14:45Z</time>
      </trkpt>
      <trkpt lat="49.29102" lon="1.27605">
        <ele>134</ele>
        <time>2013-05-07T12:15:01Z</time>
      </trkpt>
      <trkpt lat="49.29103" lon="1.2762">
        <ele>141</ele>
        <time>2013-05-07T12:15:18Z</time>
      </trkpt>
      <trkpt lat="49.29106" lon="1.27634">
        <ele>141</ele>
        <time>2013-05-07T12:15:30Z</time>
      </trkpt>
      <trkpt lat="49.29108" lon="1.27649">
        <ele>141</ele>
        <time>2013-05-07T12:15:44Z</time>
      </trkpt>
      <trkpt lat="49.29112" lon="1.27662">
        <ele>141</ele>
        <time>2013-05-07T12:15:55Z</time>
      </trkpt>
      <trkpt lat="49.29116" lon="1.27675">
        <ele>141</ele>
        <time>2013-05-07T12:16:06Z</time>
      </trkpt>
      <trkpt lat="49.2912" lon="1.27687">
        <ele>136</ele>
        <time>2013-05-07T12:16:17Z</time>
      </trkpt>
      <trkpt lat="49.29129" lon="1.27694">
        <ele>136</ele>
        <time>2013-05-07T12:16:30Z</time>
      </trkpt>
      <trkpt lat="49.29136" lon="1.27685">
        <ele>136</ele>
        <time>2013-05-07T12:16:42Z</time>
      </trkpt>
      <trkpt lat="49.29139" lon="1.2767">
        <ele>141</ele>
        <time>2013-05-07T12:16:54Z</time>
      </trkpt>
      <trkpt lat="49.29142" lon="1.27657">
        <ele>141</ele>
        <time>2013-05-07T12:17:08Z</time>
      </trkpt>
      <trkpt lat="49.29145" lon="1.27643">
        <ele>141</ele>
        <time>2013-05-07T12:17:21Z</time>
      </trkpt>
      <trkpt lat="49.29146" lon="1.27628">
        <ele>148</ele>
        <time>2013-05-07T12:17:31Z</time>
      </trkpt>
      <trkpt lat="49.29152" lon="1.27617">
        <ele>148</ele>
        <time>2013-05-07T12:17:46Z</time>
      </trkpt>
      <trkpt lat="49.29158" lon="1.27607">
        <ele>148</ele>
        <time>2013-05-07T12:18:00Z</time>
      </trkpt>
      <trkpt lat="49.29166" lon="1.27599">
        <ele>148</ele>
        <time>2013-05-07T12:18:08Z</time>
      </trkpt>
      <trkpt lat="49.29176" lon="1.27595">
        <ele>148</ele>
        <time>2013-05-07T12:18:17Z</time>
      </trkpt>
      <trkpt lat="49.29185" lon="1.2759">
        <ele>148</ele>
        <time>2013-05-07T12:18:27Z</time>
      </trkpt>
      <trkpt lat="49.29195" lon="1.2759">
        <ele>148</ele>
        <time>2013-05-07T12:18:39Z</time>
      </trkpt>
      <trkpt lat="49.29203" lon="1.27583">
        <ele>148</ele>
        <time>2013-05-07T12:18:48Z</time>
      </trkpt>
      <trkpt lat="49.29212" lon="1.2758">
        <ele>148</ele>
        <time>2013-05-07T12:18:56Z</time>
      </trkpt>
      <trkpt lat="49.29221" lon="1.27575">
        <ele>148</ele>
        <time>2013-05-07T12:19:03Z</time>
      </trkpt>
      <trkpt lat="49.29229" lon="1.27565">
        <ele>148</ele>
        <time>2013-05-07T12:19:11Z</time>
      </trkpt>
      <trkpt lat="49.29237" lon="1.2756">
        <ele>148</ele>
        <time>2013-05-07T12:19:16Z</time>
      </trkpt>
      <trkpt lat="49.29246" lon="1.27555">
        <ele>148</ele>
        <time>2013-05-07T12:19:25Z</time>
      </trkpt>
      <trkpt lat="49.29254" lon="1.27547">
        <ele>148</ele>
        <time>2013-05-07T12:19:36Z</time>
      </trkpt>
      <trkpt lat="49.29264" lon="1.27546">
        <ele>148</ele>
        <time>2013-05-07T12:20:03Z</time>
      </trkpt>
      <trkpt lat="49.29267" lon="1.2756">
        <ele>142</ele>
        <time>2013-05-07T12:23:37Z</time>
      </trkpt>
      <trkpt lat="49.29272" lon="1.27572">
        <ele>142</ele>
        <time>2013-05-07T12:23:46Z</time>
      </trkpt>
      <trkpt lat="49.29277" lon="1.27586">
        <ele>142</ele>
        <time>2013-05-07T12:23:55Z</time>
      </trkpt>
      <trkpt lat="49.2928" lon="1.276">
        <ele>142</ele>
        <time>2013-05-07T12:24:05Z</time>
      </trkpt>
      <trkpt lat="49.29283" lon="1.27614">
        <ele>142</ele>
        <time>2013-05-07T12:24:14Z</time>
      </trkpt>
      <trkpt lat="49.29286" lon="1.27627">
        <ele>142</ele>
        <time>2013-05-07T12:24:22Z</time>
      </trkpt>
      <trkpt lat="49.29289" lon="1.27641">
        <ele>142</ele>
        <time>2013-05-07T12:24:31Z</time>
      </trkpt>
      <trkpt lat="49.29291" lon="1.27656">
        <ele>142</ele>
        <time>2013-05-07T12:24:40Z</time>
      </trkpt>
      <trkpt lat="49.29294" lon="1.2767">
        <ele>142</ele>
        <time>2013-05-07T12:24:49Z</time>
      </trkpt>
      <trkpt lat="49.29297" lon="1.27685">
        <ele>142</ele>
        <time>2013-05-07T12:24:58Z</time>
      </trkpt>
      <trkpt lat="49.293" lon="1.27699">
        <ele>142</ele>
        <time>2013-05-07T12:25:07Z</time>
      </trkpt>
      <trkpt lat="49.29302" lon="1.27713">
        <ele>142</ele>
        <time>2013-05-07T12:25:16Z</time>
      </trkpt>
      <trkpt lat="49.29305" lon="1.27726">
        <ele>142</ele>
        <time>2013-05-07T12:25:25Z</time>
      </trkpt>
      <trkpt lat="49.29308" lon="1.2774">
        <ele>142</ele>
        <time>2013-05-07T12:25:33Z</time>
      </trkpt>
      <trkpt lat="49.29311" lon="1.27754">
        <ele>142</ele>
        <time>2013-05-07T12:25:41Z</time>
      </trkpt>
      <trkpt lat="49.29314" lon="1.27767">
        <ele>142</ele>
        <time>2013-05-07T12:25:49Z</time>
      </trkpt>
      <trkpt lat="49.29317" lon="1.27782">
        <ele>142</ele>
        <time>2013-05-07T12:25:57Z</time>
      </trkpt>
      <trkpt lat="49.29319" lon="1.27796">
        <ele>142</ele>
        <time>2013-05-07T12:26:05Z</time>
      </trkpt>
      <trkpt lat="49.29321" lon="1.27811">
        <ele>142</ele>
        <time>2013-05-07T12:26:13Z</time>
      </trkpt>
      <trkpt lat="49.29323" lon="1.27825">
        <ele>142</ele>
        <time>2013-05-07T12:26:21Z</time>
      </trkpt>
      <trkpt lat="49.29324" lon="1.27839">
        <ele>142</ele>
        <time>2013-05-07T12:26:29Z</time>
      </trkpt>
      <trkpt lat="49.29327" lon="1.27854">
        <ele>142</ele>
        <time>2013-05-07T12:26:37Z</time>
      </trkpt>
      <trkpt lat="49.29329" lon="1.27868">
        <ele>142</ele>
        <time>2013-05-07T12:26:46Z</time>
      </trkpt>
      <trkpt lat="49.29331" lon="1.27882">
        <ele>142</ele>
        <time>2013-05-07T12:26:54Z</time>
      </trkpt>
      <trkpt lat="49.29332" lon="1.27899">
        <ele>142</ele>
        <time>2013-05-07T12:27:03Z</time>
      </trkpt>
      <trkpt lat="49.29332" lon="1.27914">
        <ele>142</ele>
        <time>2013-05-07T12:27:11Z</time>
      </trkpt>
      <trkpt lat="49.29331" lon="1.27929">
        <ele>142</ele>
        <time>2013-05-07T12:27:19Z</time>
      </trkpt>
      <trkpt lat="49.2933" lon="1.27944">
        <ele>142</ele>
        <time>2013-05-07T12:27:28Z</time>
      </trkpt>
      <trkpt lat="49.29328" lon="1.27959">
        <ele>142</ele>
        <time>2013-05-07T12:27:36Z</time>
      </trkpt>
      <trkpt lat="49.29327" lon="1.27974">
        <ele>142</ele>
        <time>2013-05-07T12:27:44Z</time>
      </trkpt>
      <trkpt lat="49.29325" lon="1.27988">
        <ele>136</ele>
        <time>2013-05-07T12:27:52Z</time>
      </trkpt>
      <trkpt lat="49.29322" lon="1.28003">
        <ele>136</ele>
        <time>2013-05-07T12:28:01Z</time>
      </trkpt>
      <trkpt lat="49.2932" lon="1.28017">
        <ele>136</ele>
        <time>2013-05-07T12:28:09Z</time>
      </trkpt>
      <trkpt lat="49.29318" lon="1.28032">
        <ele>136</ele>
        <time>2013-05-07T12:28:21Z</time>
      </trkpt>
      <trkpt lat="49.29317" lon="1.28047">
        <ele>136</ele>
        <time>2013-05-07T12:28:30Z</time>
      </trkpt>
      <trkpt lat="49.29316" lon="1.28062">
        <ele>136</ele>
        <time>2013-05-07T12:28:39Z</time>
      </trkpt>
      <trkpt lat="49.29315" lon="1.28077">
        <ele>136</ele>
        <time>2013-05-07T12:28:47Z</time>
      </trkpt>
      <trkpt lat="49.2932" lon="1.2809">
        <ele>136</ele>
        <time>2013-05-07T12:28:58Z</time>
      </trkpt>
      <trkpt lat="49.2933" lon="1.28089">
        <ele>136</ele>
        <time>2013-05-07T12:29:07Z</time>
      </trkpt>
      <trkpt lat="49.2934" lon="1.2809">
        <ele>136</ele>
        <time>2013-05-07T12:29:17Z</time>
      </trkpt>
      <trkpt lat="49.29349" lon="1.28093">
        <ele>136</ele>
        <time>2013-05-07T12:29:27Z</time>
      </trkpt>
      <trkpt lat="49.2935" lon="1.28107">
        <ele>136</ele>
        <time>2013-05-07T12:29:57Z</time>
      </trkpt>
      <trkpt lat="49.29355" lon="1.28095">
        <ele>144</ele>
        <time>2013-05-07T12:30:27Z</time>
      </trkpt>
      <trkpt lat="49.29346" lon="1.28091">
        <ele>144</ele>
        <time>2013-05-07T12:31:56Z</time>
      </trkpt>
      <trkpt lat="49.29336" lon="1.28089">
        <ele>144</ele>
        <time>2013-05-07T12:32:07Z</time>
      </trkpt>
      <trkpt lat="49.29326" lon="1.28088">
        <ele>144</ele>
        <time>2013-05-07T12:32:16Z</time>
      </trkpt>
      <trkpt lat="49.29317" lon="1.28089">
        <ele>144</ele>
        <time>2013-05-07T12:32:25Z</time>
      </trkpt>
      <trkpt lat="49.29309" lon="1.28097">
        <ele>151</ele>
        <time>2013-05-07T12:32:32Z</time>
      </trkpt>
      <trkpt lat="49.29308" lon="1.28111">
        <ele>151</ele>
        <time>2013-05-07T12:32:40Z</time>
      </trkpt>
      <trkpt lat="49.29308" lon="1.28128">
        <ele>151</ele>
        <time>2013-05-07T12:32:49Z</time>
      </trkpt>
      <trkpt lat="49.29308" lon="1.28142">
        <ele>151</ele>
        <time>2013-05-07T12:32:57Z</time>
      </trkpt>
      <trkpt lat="49.2931" lon="1.28157">
        <ele>151</ele>
        <time>2013-05-07T12:33:05Z</time>
      </trkpt>
      <trkpt lat="49.29312" lon="1.28173">
        <ele>151</ele>
        <time>2013-05-07T12:33:13Z</time>
      </trkpt>
      <trkpt lat="49.29313" lon="1.28187">
        <ele>151</ele>
        <time>2013-05-07T12:33:21Z</time>
      </trkpt>
      <trkpt lat="49.29315" lon="1.28202">
        <ele>151</ele>
        <time>2013-05-07T12:33:29Z</time>
      </trkpt>
      <trkpt lat="49.29317" lon="1.28217">
        <ele>151</ele>
        <time>2013-05-07T12:33:37Z</time>
      </trkpt>
      <trkpt lat="49.29318" lon="1.28234">
        <ele>151</ele>
        <time>2013-05-07T12:33:45Z</time>
      </trkpt>
      <trkpt lat="49.2932" lon="1.28249">
        <ele>151</ele>
        <time>2013-05-07T12:33:53Z</time>
      </trkpt>
      <trkpt lat="49.29322" lon="1.28263">
        <ele>151</ele>
        <time>2013-05-07T12:34:01Z</time>
      </trkpt>
      <trkpt lat="49.29324" lon="1.28279">
        <ele>145</ele>
        <time>2013-05-07T12:34:09Z</time>
      </trkpt>
      <trkpt lat="49.29327" lon="1.28292">
        <ele>145</ele>
        <time>2013-05-07T12:34:16Z</time>
      </trkpt>
      <trkpt lat="49.29329" lon="1.28307">
        <ele>145</ele>
        <time>2013-05-07T12:34:24Z</time>
      </trkpt>
      <trkpt lat="49.29333" lon="1.28322">
        <ele>145</ele>
        <time>2013-05-07T12:34:32Z</time>
      </trkpt>
      <trkpt lat="49.29337" lon="1.28334">
        <ele>145</ele>
        <time>2013-05-07T12:34:39Z</time>
      </trkpt>
      <trkpt lat="49.29343" lon="1.28347">
        <ele>145</ele>
        <time>2013-05-07T12:34:47Z</time>
      </trkpt>
      <trkpt lat="49.29349" lon="1.28358">
        <ele>145</ele>
        <time>2013-05-07T12:34:54Z</time>
      </trkpt>
      <trkpt lat="49.29356" lon="1.28368">
        <ele>145</ele>
        <time>2013-05-07T12:35:02Z</time>
      </trkpt>
      <trkpt lat="49.29364" lon="1.28376">
        <ele>145</ele>
        <time>2013-05-07T12:35:10Z</time>
      </trkpt>
      <trkpt lat="49.2937" lon="1.28388">
        <ele>145</ele>
        <time>2013-05-07T12:35:21Z</time>
      </trkpt>
      <trkpt lat="49.29374" lon="1.28403">
        <ele>145</ele>
        <time>2013-05-07T12:35:29Z</time>
      </trkpt>
      <trkpt lat="49.29378" lon="1.28417">
        <ele>145</ele>
        <time>2013-05-07T12:35:37Z</time>
      </trkpt>
      <trkpt lat="49.2938" lon="1.2843">
        <ele>145</ele>
        <time>2013-05-07T12:35:44Z</time>
      </trkpt>
      <trkpt lat="49.29383" lon="1.28444">
        <ele>145</ele>
        <time>2013-05-07T12:35:51Z</time>
      </trkpt>
      <trkpt lat="49.29387" lon="1.28459">
        <ele>145</ele>
        <time>2013-05-07T12:35:59Z</time>
      </trkpt>
      <trkpt lat="49.2939" lon="1.28474">
        <ele>145</ele>
        <time>2013-05-07T12:36:07Z</time>
      </trkpt>
      <trkpt lat="49.29394" lon="1.28487">
        <ele>145</ele>
        <time>2013-05-07T12:36:14Z</time>
      </trkpt>
      <trkpt lat="49.29397" lon="1.28501">
        <ele>145</ele>
        <time>2013-05-07T12:36:22Z</time>
      </trkpt>
      <trkpt lat="49.29393" lon="1.28516">
        <ele>145</ele>
        <time>2013-05-07T12:36:30Z</time>
      </trkpt>
      <trkpt lat="49.29387" lon="1.28527">
        <ele>145</ele>
        <time>2013-05-07T12:36:37Z</time>
      </trkpt>
      <trkpt lat="49.29378" lon="1.28535">
        <ele>145</ele>
        <time>2013-05-07T12:36:45Z</time>
      </trkpt>
      <trkpt lat="49.2937" lon="1.28544">
        <ele>145</ele>
        <time>2013-05-07T12:36:53Z</time>
      </trkpt>
      <trkpt lat="49.29361" lon="1.28552">
        <ele>145</ele>
        <time>2013-05-07T12:37:01Z</time>
      </trkpt>
      <trkpt lat="49.29353" lon="1.28562">
        <ele>145</ele>
        <time>2013-05-07T12:37:09Z</time>
      </trkpt>
      <trkpt lat="49.29344" lon="1.2857">
        <ele>145</ele>
        <time>2013-05-07T12:37:17Z</time>
      </trkpt>
      <trkpt lat="49.29337" lon="1.28579">
        <ele>145</ele>
        <time>2013-05-07T12:37:24Z</time>
      </trkpt>
      <trkpt lat="49.29331" lon="1.28588">
        <ele>145</ele>
        <time>2013-05-07T12:37:31Z</time>
      </trkpt>
      <trkpt lat="49.29325" lon="1.28599">
        <ele>145</ele>
        <time>2013-05-07T12:37:38Z</time>
      </trkpt>
      <trkpt lat="49.29321" lon="1.28612">
        <ele>145</ele>
        <time>2013-05-07T12:37:45Z</time>
      </trkpt>
      <trkpt lat="49.29318" lon="1.28625">
        <ele>145</ele>
        <time>2013-05-07T12:37:52Z</time>
      </trkpt>
      <trkpt lat="49.29317" lon="1.28641">
        <ele>145</ele>
        <time>2013-05-07T12:38:00Z</time>
      </trkpt>
      <trkpt lat="49.29317" lon="1.28655">
        <ele>145</ele>
        <time>2013-05-07T12:38:07Z</time>
      </trkpt>
      <trkpt lat="49.29318" lon="1.28671">
        <ele>145</ele>
        <time>2013-05-07T12:38:15Z</time>
      </trkpt>
      <trkpt lat="49.2932" lon="1.28687">
        <ele>145</ele>
        <time>2013-05-07T12:38:23Z</time>
      </trkpt>
      <trkpt lat="49.29318" lon="1.28703">
        <ele>145</ele>
        <time>2013-05-07T12:38:31Z</time>
      </trkpt>
      <trkpt lat="49.29314" lon="1.28715">
        <ele>145</ele>
        <time>2013-05-07T12:38:38Z</time>
      </trkpt>
      <trkpt lat="49.29308" lon="1.28725">
        <ele>145</ele>
        <time>2013-05-07T12:38:45Z</time>
      </trkpt>
      <trkpt lat="49.29299" lon="1.28733">
        <ele>145</ele>
        <time>2013-05-07T12:38:53Z</time>
      </trkpt>
      <trkpt lat="49.29291" lon="1.28739">
        <ele>145</ele>
        <time>2013-05-07T12:39:00Z</time>
      </trkpt>
      <trkpt lat="49.29282" lon="1.28747">
        <ele>145</ele>
        <time>2013-05-07T12:39:08Z</time>
      </trkpt>
      <trkpt lat="49.29274" lon="1.28754">
        <ele>145</ele>
        <time>2013-05-07T12:39:16Z</time>
      </trkpt>
      <trkpt lat="49.29266" lon="1.28761">
        <ele>145</ele>
        <time>2013-05-07T12:39:23Z</time>
      </trkpt>
      <trkpt lat="49.29257" lon="1.28769">
        <ele>145</ele>
        <time>2013-05-07T12:39:31Z</time>
      </trkpt>
      <trkpt lat="49.2925" lon="1.28779">
        <ele>145</ele>
        <time>2013-05-07T12:39:38Z</time>
      </trkpt>
      <trkpt lat="49.29244" lon="1.28791">
        <ele>145</ele>
        <time>2013-05-07T12:39:46Z</time>
      </trkpt>
      <trkpt lat="49.29239" lon="1.28803">
        <ele>145</ele>
        <time>2013-05-07T12:39:54Z</time>
      </trkpt>
      <trkpt lat="49.29234" lon="1.28818">
        <ele>145</ele>
        <time>2013-05-07T12:40:02Z</time>
      </trkpt>
      <trkpt lat="49.29232" lon="1.28831">
        <ele>145</ele>
        <time>2013-05-07T12:40:09Z</time>
      </trkpt>
      <trkpt lat="49.2923" lon="1.28846">
        <ele>145</ele>
        <time>2013-05-07T12:40:17Z</time>
      </trkpt>
      <trkpt lat="49.29228" lon="1.28862">
        <ele>145</ele>
        <time>2013-05-07T12:40:25Z</time>
      </trkpt>
      <trkpt lat="49.29226" lon="1.28877">
        <ele>145</ele>
        <time>2013-05-07T12:40:34Z</time>
      </trkpt>
      <trkpt lat="49.29224" lon="1.28892">
        <ele>145</ele>
        <time>2013-05-07T12:40:42Z</time>
      </trkpt>
      <trkpt lat="49.29221" lon="1.28906">
        <ele>145</ele>
        <time>2013-05-07T12:40:50Z</time>
      </trkpt>
      <trkpt lat="49.29219" lon="1.2892">
        <ele>145</ele>
        <time>2013-05-07T12:40:57Z</time>
      </trkpt>
      <trkpt lat="49.29216" lon="1.28934">
        <ele>145</ele>
        <time>2013-05-07T12:41:05Z</time>
      </trkpt>
      <trkpt lat="49.29213" lon="1.28948">
        <ele>145</ele>
        <time>2013-05-07T12:41:12Z</time>
      </trkpt>
      <trkpt lat="49.2921" lon="1.28962">
        <ele>145</ele>
        <time>2013-05-07T12:41:20Z</time>
      </trkpt>
      <trkpt lat="49.29207" lon="1.28976">
        <ele>145</ele>
        <time>2013-05-07T12:41:28Z</time>
      </trkpt>
      <trkpt lat="49.29203" lon="1.2899">
        <ele>145</ele>
        <time>2013-05-07T12:41:36Z</time>
      </trkpt>
      <trkpt lat="49.292" lon="1.29004">
        <ele>145</ele>
        <time>2013-05-07T12:41:44Z</time>
      </trkpt>
      <trkpt lat="49.29196" lon="1.29018">
        <ele>145</ele>
        <time>2013-05-07T12:41:52Z</time>
      </trkpt>
      <trkpt lat="49.29192" lon="1.29031">
        <ele>145</ele>
        <time>2013-05-07T12:42:00Z</time>
      </trkpt>
      <trkpt lat="49.29188" lon="1.29046">
        <ele>145</ele>
        <time>2013-05-07T12:42:09Z</time>
      </trkpt>
      <trkpt lat="49.29183" lon="1.29059">
        <ele>145</ele>
        <time>2013-05-07T12:42:17Z</time>
      </trkpt>
      <trkpt lat="49.2918" lon="1.29073">
        <ele>145</ele>
        <time>2013-05-07T12:42:25Z</time>
      </trkpt>
      <trkpt lat="49.29176" lon="1.29086">
        <ele>145</ele>
        <time>2013-05-07T12:42:33Z</time>
      </trkpt>
      <trkpt lat="49.29172" lon="1.291">
        <ele>145</ele>
        <time>2013-05-07T12:42:41Z</time>
      </trkpt>
      <trkpt lat="49.29167" lon="1.29112">
        <ele>145</ele>
        <time>2013-05-07T12:42:49Z</time>
      </trkpt>
      <trkpt lat="49.29163" lon="1.29125">
        <ele>145</ele>
        <time>2013-05-07T12:42:57Z</time>
      </trkpt>
      <trkpt lat="49.29159" lon="1.29138">
        <ele>145</ele>
        <time>2013-05-07T12:43:05Z</time>
      </trkpt>
      <trkpt lat="49.29155" lon="1.29152">
        <ele>145</ele>
        <time>2013-05-07T12:43:13Z</time>
      </trkpt>
      <trkpt lat="49.2915" lon="1.29165">
        <ele>145</ele>
        <time>2013-05-07T12:43:21Z</time>
      </trkpt>
      <trkpt lat="49.29147" lon="1.29179">
        <ele>145</ele>
        <time>2013-05-07T12:43:29Z</time>
      </trkpt>
      <trkpt lat="49.29142" lon="1.29192">
        <ele>145</ele>
        <time>2013-05-07T12:43:37Z</time>
      </trkpt>
      <trkpt lat="49.29138" lon="1.29206">
        <ele>145</ele>
        <time>2013-05-07T12:43:45Z</time>
      </trkpt>
      <trkpt lat="49.29133" lon="1.29219">
        <ele>145</ele>
        <time>2013-05-07T12:43:53Z</time>
      </trkpt>
      <trkpt lat="49.29128" lon="1.29233">
        <ele>145</ele>
        <time>2013-05-07T12:44:01Z</time>
      </trkpt>
      <trkpt lat="49.29124" lon="1.29246">
        <ele>145</ele>
        <time>2013-05-07T12:44:09Z</time>
      </trkpt>
      <trkpt lat="49.29119" lon="1.2926">
        <ele>145</ele>
        <time>2013-05-07T12:44:17Z</time>
      </trkpt>
      <trkpt lat="49.29114" lon="1.29273">
        <ele>145</ele>
        <time>2013-05-07T12:44:25Z</time>
      </trkpt>
      <trkpt lat="49.29109" lon="1.29286">
        <ele>145</ele>
        <time>2013-05-07T12:44:33Z</time>
      </trkpt>
      <trkpt lat="49.29104" lon="1.293">
        <ele>145</ele>
        <time>2013-05-07T12:44:41Z</time>
      </trkpt>
      <trkpt lat="49.29099" lon="1.29313">
        <ele>145</ele>
        <time>2013-05-07T12:44:49Z</time>
      </trkpt>
      <trkpt lat="49.29093" lon="1.29326">
        <ele>145</ele>
        <time>2013-05-07T12:44:57Z</time>
      </trkpt>
      <trkpt lat="49.29088" lon="1.29339">
        <ele>145</ele>
        <time>2013-05-07T12:45:07Z</time>
      </trkpt>
      <trkpt lat="49.29084" lon="1.29352">
        <ele>145</ele>
        <time>2013-05-07T12:45:15Z</time>
      </trkpt>
      <trkpt lat="49.29079" lon="1.29366">
        <ele>145</ele>
        <time>2013-05-07T12:45:23Z</time>
      </trkpt>
      <trkpt lat="49.29076" lon="1.2938">
        <ele>152</ele>
        <time>2013-05-07T12:48:18Z</time>
      </trkpt>
      <trkpt lat="49.29071" lon="1.29392">
        <ele>152</ele>
        <time>2013-05-07T12:48:28Z</time>
      </trkpt>
      <trkpt lat="49.29066" lon="1.29404">
        <ele>152</ele>
        <time>2013-05-07T12:48:37Z</time>
      </trkpt>
      <trkpt lat="49.29061" lon="1.29417">
        <ele>152</ele>
        <time>2013-05-07T12:48:46Z</time>
      </trkpt>
      <trkpt lat="49.29056" lon="1.29429">
        <ele>152</ele>
        <time>2013-05-07T12:48:55Z</time>
      </trkpt>
      <trkpt lat="49.2905" lon="1.29443">
        <ele>152</ele>
        <time>2013-05-07T12:49:04Z</time>
      </trkpt>
      <trkpt lat="49.29045" lon="1.29456">
        <ele>152</ele>
        <time>2013-05-07T12:49:13Z</time>
      </trkpt>
      <trkpt lat="49.29039" lon="1.2947">
        <ele>152</ele>
        <time>2013-05-07T12:49:22Z</time>
      </trkpt>
      <trkpt lat="49.29034" lon="1.29482">
        <ele>152</ele>
        <time>2013-05-07T12:49:31Z</time>
      </trkpt>
      <trkpt lat="49.29029" lon="1.29496">
        <ele>152</ele>
        <time>2013-05-07T12:49:40Z</time>
      </trkpt>
      <trkpt lat="49.29024" lon="1.29508">
        <ele>152</ele>
        <time>2013-05-07T12:49:48Z</time>
      </trkpt>
      <trkpt lat="49.29019" lon="1.2952">
        <ele>152</ele>
        <time>2013-05-07T12:49:56Z</time>
      </trkpt>
      <trkpt lat="49.29014" lon="1.29533">
        <ele>152</ele>
        <time>2013-05-07T12:50:05Z</time>
      </trkpt>
      <trkpt lat="49.29009" lon="1.29545">
        <ele>152</ele>
        <time>2013-05-07T12:50:13Z</time>
      </trkpt>
      <trkpt lat="49.29004" lon="1.29557">
        <ele>152</ele>
        <time>2013-05-07T12:50:21Z</time>
      </trkpt>
      <trkpt lat="49.28999" lon="1.29569">
        <ele>152</ele>
        <time>2013-05-07T12:50:29Z</time>
      </trkpt>
      <trkpt lat="49.28995" lon="1.29582">
        <ele>152</ele>
        <time>2013-05-07T12:50:37Z</time>
      </trkpt>
      <trkpt lat="49.28989" lon="1.29596">
        <ele>152</ele>
        <time>2013-05-07T12:50:46Z</time>
      </trkpt>
      <trkpt lat="49.28985" lon="1.29608">
        <ele>152</ele>
        <time>2013-05-07T12:50:54Z</time>
      </trkpt>
      <trkpt lat="49.28979" lon="1.29621">
        <ele>147</ele>
        <time>2013-05-07T12:51:02Z</time>
      </trkpt>
      <trkpt lat="49.28975" lon="1.29633">
        <ele>147</ele>
        <time>2013-05-07T12:51:10Z</time>
      </trkpt>
      <trkpt lat="49.2897" lon="1.29646">
        <ele>147</ele>
        <time>2013-05-07T12:51:18Z</time>
      </trkpt>
      <trkpt lat="49.28965" lon="1.29659">
        <ele>147</ele>
        <time>2013-05-07T12:51:27Z</time>
      </trkpt>
      <trkpt lat="49.2896" lon="1.29673">
        <ele>147</ele>
        <time>2013-05-07T12:51:36Z</time>
      </trkpt>
      <trkpt lat="49.28956" lon="1.29685">
        <ele>147</ele>
        <time>2013-05-07T12:51:44Z</time>
      </trkpt>
      <trkpt lat="49.28951" lon="1.29698">
        <ele>147</ele>
        <time>2013-05-07T12:51:52Z</time>
      </trkpt>
      <trkpt lat="49.28946" lon="1.29711">
        <ele>147</ele>
        <time>2013-05-07T12:52:01Z</time>
      </trkpt>
      <trkpt lat="49.28941" lon="1.29724">
        <ele>147</ele>
        <time>2013-05-07T12:52:09Z</time>
      </trkpt>
      <trkpt lat="49.28937" lon="1.29737">
        <ele>147</ele>
        <time>2013-05-07T12:52:17Z</time>
      </trkpt>
      <trkpt lat="49.28932" lon="1.2975">
        <ele>147</ele>
        <time>2013-05-07T12:52:25Z</time>
      </trkpt>
      <trkpt lat="49.28927" lon="1.29763">
        <ele>147</ele>
        <time>2013-05-07T12:52:33Z</time>
      </trkpt>
      <trkpt lat="49.28922" lon="1.29774">
        <ele>147</ele>
        <time>2013-05-07T12:52:41Z</time>
      </trkpt>
      <trkpt lat="49.28917" lon="1.29787">
        <ele>147</ele>
        <time>2013-05-07T12:52:49Z</time>
      </trkpt>
      <trkpt lat="49.28912" lon="1.29799">
        <ele>147</ele>
        <time>2013-05-07T12:52:58Z</time>
      </trkpt>
      <trkpt lat="49.28907" lon="1.29813">
        <ele>147</ele>
        <time>2013-05-07T12:53:07Z</time>
      </trkpt>
      <trkpt lat="49.28902" lon="1.29825">
        <ele>147</ele>
        <time>2013-05-07T12:53:15Z</time>
      </trkpt>
      <trkpt lat="49.28897" lon="1.29839">
        <ele>147</ele>
        <time>2013-05-07T12:53:24Z</time>
      </trkpt>
      <trkpt lat="49.28892" lon="1.29852">
        <ele>147</ele>
        <time>2013-05-07T12:53:33Z</time>
      </trkpt>
      <trkpt lat="49.28887" lon="1.29866">
        <ele>147</ele>
        <time>2013-05-07T12:53:42Z</time>
      </trkpt>
      <trkpt lat="49.28882" lon="1.29878">
        <ele>147</ele>
        <time>2013-05-07T12:53:50Z</time>
      </trkpt>
      <trkpt lat="49.28877" lon="1.29891">
        <ele>147</ele>
        <time>2013-05-07T12:53:59Z</time>
      </trkpt>
      <trkpt lat="49.28871" lon="1.29905">
        <ele>147</ele>
        <time>2013-05-07T12:54:08Z</time>
      </trkpt>
      <trkpt lat="49.28867" lon="1.29917">
        <ele>147</ele>
        <time>2013-05-07T12:54:17Z</time>
      </trkpt>
      <trkpt lat="49.28861" lon="1.29929">
        <ele>147</ele>
        <time>2013-05-07T12:54:25Z</time>
      </trkpt>
      <trkpt lat="49.28856" lon="1.29942">
        <ele>147</ele>
        <time>2013-05-07T12:54:34Z</time>
      </trkpt>
      <trkpt lat="49.28851" lon="1.29955">
        <ele>147</ele>
        <time>2013-05-07T12:54:42Z</time>
      </trkpt>
      <trkpt lat="49.28847" lon="1.29967">
        <ele>147</ele>
        <time>2013-05-07T12:54:50Z</time>
      </trkpt>
      <trkpt lat="49.28841" lon="1.2998">
        <ele>147</ele>
        <time>2013-05-07T12:54:58Z</time>
      </trkpt>
      <trkpt lat="49.28836" lon="1.29992">
        <ele>147</ele>
        <time>2013-05-07T12:55:06Z</time>
      </trkpt>
      <trkpt lat="49.28831" lon="1.30005">
        <ele>147</ele>
        <time>2013-05-07T12:55:14Z</time>
      </trkpt>
      <trkpt lat="49.28826" lon="1.30018">
        <ele>147</ele>
        <time>2013-05-07T12:55:22Z</time>
      </trkpt>
      <trkpt lat="49.28821" lon="1.30031">
        <ele>147</ele>
        <time>2013-05-07T12:55:31Z</time>
      </trkpt>
      <trkpt lat="49.28816" lon="1.30044">
        <ele>147</ele>
        <time>2013-05-07T12:55:39Z</time>
      </trkpt>
      <trkpt lat="49.28811" lon="1.30057">
        <ele>142</ele>
        <time>2013-05-07T12:55:48Z</time>
      </trkpt>
      <trkpt lat="49.28806" lon="1.3007">
        <ele>142</ele>
        <time>2013-05-07T12:55:56Z</time>
      </trkpt>
      <trkpt lat="49.28802" lon="1.30082">
        <ele>142</ele>
        <time>2013-05-07T12:56:04Z</time>
      </trkpt>
      <trkpt lat="49.28798" lon="1.30095">
        <ele>142</ele>
        <time>2013-05-07T12:56:12Z</time>
      </trkpt>
      <trkpt lat="49.28795" lon="1.30108">
        <ele>142</ele>
        <time>2013-05-07T12:56:20Z</time>
      </trkpt>
      <trkpt lat="49.28792" lon="1.30122">
        <ele>142</ele>
        <time>2013-05-07T12:56:28Z</time>
      </trkpt>
      <trkpt lat="49.2879" lon="1.30136">
        <ele>142</ele>
        <time>2013-05-07T12:56:36Z</time>
      </trkpt>
      <trkpt lat="49.28787" lon="1.30151">
        <ele>142</ele>
        <time>2013-05-07T12:56:44Z</time>
      </trkpt>
      <trkpt lat="49.28786" lon="1.30166">
        <ele>142</ele>
        <time>2013-05-07T12:56:53Z</time>
      </trkpt>
      <trkpt lat="49.28784" lon="1.3018">
        <ele>142</ele>
        <time>2013-05-07T12:57:01Z</time>
      </trkpt>
      <trkpt lat="49.28784" lon="1.30196">
        <ele>142</ele>
        <time>2013-05-07T12:57:09Z</time>
      </trkpt>
      <trkpt lat="49.28783" lon="1.3021">
        <ele>142</ele>
        <time>2013-05-07T12:57:17Z</time>
      </trkpt>
      <trkpt lat="49.28783" lon="1.30224">
        <ele>142</ele>
        <time>2013-05-07T12:57:25Z</time>
      </trkpt>
      <trkpt lat="49.28782" lon="1.30239">
        <ele>142</ele>
        <time>2013-05-07T12:57:33Z</time>
      </trkpt>
      <trkpt lat="49.28782" lon="1.30253">
        <ele>142</ele>
        <time>2013-05-07T12:57:41Z</time>
      </trkpt>
      <trkpt lat="49.28782" lon="1.30268">
        <ele>142</ele>
        <time>2013-05-07T12:57:50Z</time>
      </trkpt>
      <trkpt lat="49.28783" lon="1.30283">
        <ele>142</ele>
        <time>2013-05-07T12:57:58Z</time>
      </trkpt>
      <trkpt lat="49.28783" lon="1.30297">
        <ele>142</ele>
        <time>2013-05-07T12:58:06Z</time>
      </trkpt>
      <trkpt lat="49.28785" lon="1.30312">
        <ele>142</ele>
        <time>2013-05-07T12:58:15Z</time>
      </trkpt>
      <trkpt lat="49.28786" lon="1.30327">
        <ele>142</ele>
        <time>2013-05-07T12:58:23Z</time>
      </trkpt>
      <trkpt lat="49.28788" lon="1.30341">
        <ele>142</ele>
        <time>2013-05-07T12:58:31Z</time>
      </trkpt>
      <trkpt lat="49.2879" lon="1.30355">
        <ele>142</ele>
        <time>2013-05-07T12:58:39Z</time>
      </trkpt>
      <trkpt lat="49.28791" lon="1.30369">
        <ele>142</ele>
        <time>2013-05-07T12:58:47Z</time>
      </trkpt>
      <trkpt lat="49.28793" lon="1.30384">
        <ele>142</ele>
        <time>2013-05-07T12:58:56Z</time>
      </trkpt>
      <trkpt lat="49.28795" lon="1.30399">
        <ele>142</ele>
        <time>2013-05-07T12:59:04Z</time>
      </trkpt>
      <trkpt lat="49.28797" lon="1.30413">
        <ele>137</ele>
        <time>2013-05-07T12:59:12Z</time>
      </trkpt>
      <trkpt lat="49.28799" lon="1.30429">
        <ele>137</ele>
        <time>2013-05-07T12:59:21Z</time>
      </trkpt>
      <trkpt lat="49.28801" lon="1.30444">
        <ele>137</ele>
        <time>2013-05-07T12:59:30Z</time>
      </trkpt>
      <trkpt lat="49.28803" lon="1.3046">
        <ele>137</ele>
        <time>2013-05-07T12:59:39Z</time>
      </trkpt>
      <trkpt lat="49.28805" lon="1.30475">
        <ele>137</ele>
        <time>2013-05-07T12:59:48Z</time>
      </trkpt>
      <trkpt lat="49.28807" lon="1.30489">
        <ele>137</ele>
        <time>2013-05-07T12:59:56Z</time>
      </trkpt>
      <trkpt lat="49.28809" lon="1.30505">
        <ele>137</ele>
        <time>2013-05-07T13:00:05Z</time>
      </trkpt>
      <trkpt lat="49.28811" lon="1.30519">
        <ele>137</ele>
        <time>2013-05-07T13:00:13Z</time>
      </trkpt>
      <trkpt lat="49.28811" lon="1.30534">
        <ele>137</ele>
        <time>2013-05-07T13:00:22Z</time>
      </trkpt>
      <trkpt lat="49.2881" lon="1.3055">
        <ele>137</ele>
        <time>2013-05-07T13:00:31Z</time>
      </trkpt>
      <trkpt lat="49.28809" lon="1.30564">
        <ele>137</ele>
        <time>2013-05-07T13:00:40Z</time>
      </trkpt>
      <trkpt lat="49.28804" lon="1.30576">
        <ele>137</ele>
        <time>2013-05-07T13:00:50Z</time>
      </trkpt>
      <trkpt lat="49.28794" lon="1.30579">
        <ele>137</ele>
        <time>2013-05-07T13:00:59Z</time>
      </trkpt>
      <trkpt lat="49.28784" lon="1.30582">
        <ele>137</ele>
        <time>2013-05-07T13:01:08Z</time>
      </trkpt>
      <trkpt lat="49.28774" lon="1.30585">
        <ele>137</ele>
        <time>2013-05-07T13:01:17Z</time>
      </trkpt>
      <trkpt lat="49.28764" lon="1.30587">
        <ele>137</ele>
        <time>2013-05-07T13:01:26Z</time>
      </trkpt>
      <trkpt lat="49.28754" lon="1.30589">
        <ele>137</ele>
        <time>2013-05-07T13:01:35Z</time>
      </trkpt>
      <trkpt lat="49.28744" lon="1.30589">
        <ele>137</ele>
        <time>2013-05-07T13:01:44Z</time>
      </trkpt>
      <trkpt lat="49.28735" lon="1.30589">
        <ele>137</ele>
        <time>2013-05-07T13:01:53Z</time>
      </trkpt>
      <trkpt lat="49.28726" lon="1.30588">
        <ele>137</ele>
        <time>2013-05-07T13:02:01Z</time>
      </trkpt>
      <trkpt lat="49.28716" lon="1.30588">
        <ele>137</ele>
        <time>2013-05-07T13:02:09Z</time>
      </trkpt>
      <trkpt lat="49.28706" lon="1.30586">
        <ele>137</ele>
        <time>2013-05-07T13:02:18Z</time>
      </trkpt>
      <trkpt lat="49.28697" lon="1.30585">
        <ele>137</ele>
        <time>2013-05-07T13:02:26Z</time>
      </trkpt>
      <trkpt lat="49.28688" lon="1.30581">
        <ele>137</ele>
        <time>2013-05-07T13:02:34Z</time>
      </trkpt>
      <trkpt lat="49.2868" lon="1.30574">
        <ele>137</ele>
        <time>2013-05-07T13:02:42Z</time>
      </trkpt>
      <trkpt lat="49.2867" lon="1.30573">
        <ele>137</ele>
        <time>2013-05-07T13:02:51Z</time>
      </trkpt>
      <trkpt lat="49.28662" lon="1.30581">
        <ele>137</ele>
        <time>2013-05-07T13:03:00Z</time>
      </trkpt>
      <trkpt lat="49.28656" lon="1.30593">
        <ele>142</ele>
        <time>2013-05-07T13:03:09Z</time>
      </trkpt>
      <trkpt lat="49.28649" lon="1.30602">
        <ele>142</ele>
        <time>2013-05-07T13:03:16Z</time>
      </trkpt>
      <trkpt lat="49.28643" lon="1.30611">
        <ele>142</ele>
        <time>2013-05-07T13:03:24Z</time>
      </trkpt>
      <trkpt lat="49.28636" lon="1.30622">
        <ele>142</ele>
        <time>2013-05-07T13:03:32Z</time>
      </trkpt>
      <trkpt lat="49.28633" lon="1.30636">
        <ele>142</ele>
        <time>2013-05-07T13:03:40Z</time>
      </trkpt>
      <trkpt lat="49.28629" lon="1.30649">
        <ele>142</ele>
        <time>2013-05-07T13:03:49Z</time>
      </trkpt>
      <trkpt lat="49.28626" lon="1.30664">
        <ele>142</ele>
        <time>2013-05-07T13:03:58Z</time>
      </trkpt>
      <trkpt lat="49.28621" lon="1.30677">
        <ele>142</ele>
        <time>2013-05-07T13:04:06Z</time>
      </trkpt>
      <trkpt lat="49.28616" lon="1.3069">
        <ele>142</ele>
        <time>2013-05-07T13:04:15Z</time>
      </trkpt>
      <trkpt lat="49.28607" lon="1.30698">
        <ele>142</ele>
        <time>2013-05-07T13:04:24Z</time>
      </trkpt>
      <trkpt lat="49.28598" lon="1.30704">
        <ele>142</ele>
        <time>2013-05-07T13:04:32Z</time>
      </trkpt>
      <trkpt lat="49.28589" lon="1.30709">
        <ele>142</ele>
        <time>2013-05-07T13:04:40Z</time>
      </trkpt>
      <trkpt lat="49.2858" lon="1.30714">
        <ele>142</ele>
        <time>2013-05-07T13:04:47Z</time>
      </trkpt>
      <trkpt lat="49.28571" lon="1.3071">
        <ele>142</ele>
        <time>2013-05-07T13:04:56Z</time>
      </trkpt>
      <trkpt lat="49.28566" lon="1.30697">
        <ele>142</ele>
        <time>2013-05-07T13:05:05Z</time>
      </trkpt>
      <trkpt lat="49.28561" lon="1.30684">
        <ele>142</ele>
        <time>2013-05-07T13:05:13Z</time>
      </trkpt>
      <trkpt lat="49.28555" lon="1.30673">
        <ele>148</ele>
        <time>2013-05-07T13:05:22Z</time>
      </trkpt>
      <trkpt lat="49.28548" lon="1.30664">
        <ele>148</ele>
        <time>2013-05-07T13:05:30Z</time>
      </trkpt>
      <trkpt lat="49.2854" lon="1.30655">
        <ele>148</ele>
        <time>2013-05-07T13:05:38Z</time>
      </trkpt>
      <trkpt lat="49.28531" lon="1.30647">
        <ele>148</ele>
        <time>2013-05-07T13:05:45Z</time>
      </trkpt>
      <trkpt lat="49.28523" lon="1.30638">
        <ele>148</ele>
        <time>2013-05-07T13:05:52Z</time>
      </trkpt>
      <trkpt lat="49.28514" lon="1.30629">
        <ele>143</ele>
        <time>2013-05-07T13:06:00Z</time>
      </trkpt>
      <trkpt lat="49.28506" lon="1.3062">
        <ele>143</ele>
        <time>2013-05-07T13:06:08Z</time>
      </trkpt>
      <trkpt lat="49.28498" lon="1.30611">
        <ele>143</ele>
        <time>2013-05-07T13:06:17Z</time>
      </trkpt>
      <trkpt lat="49.28491" lon="1.30603">
        <ele>143</ele>
        <time>2013-05-07T13:06:24Z</time>
      </trkpt>
      <trkpt lat="49.28481" lon="1.30602">
        <ele>143</ele>
        <time>2013-05-07T13:06:32Z</time>
      </trkpt>
      <trkpt lat="49.28471" lon="1.30605">
        <ele>143</ele>
        <time>2013-05-07T13:06:39Z</time>
      </trkpt>
      <trkpt lat="49.28462" lon="1.30611">
        <ele>137</ele>
        <time>2013-05-07T13:06:46Z</time>
      </trkpt>
      <trkpt lat="49.28454" lon="1.3062">
        <ele>137</ele>
        <time>2013-05-07T13:06:54Z</time>
      </trkpt>
      <trkpt lat="49.28446" lon="1.30629">
        <ele>137</ele>
        <time>2013-05-07T13:07:02Z</time>
      </trkpt>
      <trkpt lat="49.2844" lon="1.3064">
        <ele>137</ele>
        <time>2013-05-07T13:07:09Z</time>
      </trkpt>
      <trkpt lat="49.28433" lon="1.30651">
        <ele>137</ele>
        <time>2013-05-07T13:07:17Z</time>
      </trkpt>
      <trkpt lat="49.28427" lon="1.30662">
        <ele>137</ele>
        <time>2013-05-07T13:07:25Z</time>
      </trkpt>
      <trkpt lat="49.28419" lon="1.30671">
        <ele>137</ele>
        <time>2013-05-07T13:07:33Z</time>
      </trkpt>
      <trkpt lat="49.28409" lon="1.30673">
        <ele>137</ele>
        <time>2013-05-07T13:07:42Z</time>
      </trkpt>
      <trkpt lat="49.28401" lon="1.30669">
        <ele>137</ele>
        <time>2013-05-07T13:08:04Z</time>
      </trkpt>
      <trkpt lat="49.28391" lon="1.30664">
        <ele>137</ele>
        <time>2013-05-07T13:08:21Z</time>
      </trkpt>
      <trkpt lat="49.28382" lon="1.30657">
        <ele>131</ele>
        <time>2013-05-07T13:08:30Z</time>
      </trkpt>
      <trkpt lat="49.28375" lon="1.30647">
        <ele>131</ele>
        <time>2013-05-07T13:08:39Z</time>
      </trkpt>
      <trkpt lat="49.28368" lon="1.30638">
        <ele>131</ele>
        <time>2013-05-07T13:08:48Z</time>
      </trkpt>
      <trkpt lat="49.28361" lon="1.30628">
        <ele>131</ele>
        <time>2013-05-07T13:08:56Z</time>
      </trkpt>
      <trkpt lat="49.28357" lon="1.30615">
        <ele>131</ele>
        <time>2013-05-07T13:09:04Z</time>
      </trkpt>
      <trkpt lat="49.28351" lon="1.30602">
        <ele>131</ele>
        <time>2013-05-07T13:09:13Z</time>
      </trkpt>
      <trkpt lat="49.28343" lon="1.30594">
        <ele>131</ele>
        <time>2013-05-07T13:09:21Z</time>
      </trkpt>
      <trkpt lat="49.28335" lon="1.30585">
        <ele>131</ele>
        <time>2013-05-07T13:09:30Z</time>
      </trkpt>
      <trkpt lat="49.28327" lon="1.30577">
        <ele>131</ele>
        <time>2013-05-07T13:09:38Z</time>
      </trkpt>
      <trkpt lat="49.28318" lon="1.30569">
        <ele>131</ele>
        <time>2013-05-07T13:09:47Z</time>
      </trkpt>
      <trkpt lat="49.2831" lon="1.30561">
        <ele>131</ele>
        <time>2013-05-07T13:09:55Z</time>
      </trkpt>
      <trkpt lat="49.28301" lon="1.30553">
        <ele>131</ele>
        <time>2013-05-07T13:10:04Z</time>
      </trkpt>
      <trkpt lat="49.28293" lon="1.30545">
        <ele>131</ele>
        <time>2013-05-07T13:10:13Z</time>
      </trkpt>
      <trkpt lat="49.28285" lon="1.30535">
        <ele>131</ele>
        <time>2013-05-07T13:10:22Z</time>
      </trkpt>
      <trkpt lat="49.28278" lon="1.30526">
        <ele>131</ele>
        <time>2013-05-07T13:10:31Z</time>
      </trkpt>
      <trkpt lat="49.28271" lon="1.30516">
        <ele>131</ele>
        <time>2013-05-07T13:10:40Z</time>
      </trkpt>
      <trkpt lat="49.28263" lon="1.30507">
        <ele>131</ele>
        <time>2013-05-07T13:10:50Z</time>
      </trkpt>
      <trkpt lat="49.28256" lon="1.30497">
        <ele>131</ele>
        <time>2013-05-07T13:11:02Z</time>
      </trkpt>
      <trkpt lat="49.28249" lon="1.30488">
        <ele>131</ele>
        <time>2013-05-07T13:11:15Z</time>
      </trkpt>
      <trkpt lat="49.28242" lon="1.30478">
        <ele>131</ele>
        <time>2013-05-07T13:11:26Z</time>
      </trkpt>
      <trkpt lat="49.28235" lon="1.30468">
        <ele>137</ele>
        <time>2013-05-07T13:11:37Z</time>
      </trkpt>
      <trkpt lat="49.28226" lon="1.30462">
        <ele>137</ele>
        <time>2013-05-07T13:11:48Z</time>
      </trkpt>
      <trkpt lat="49.28219" lon="1.30451">
        <ele>137</ele>
        <time>2013-05-07T13:11:59Z</time>
      </trkpt>
      <trkpt lat="49.28212" lon="1.30441">
        <ele>137</ele>
        <time>2013-05-07T13:12:09Z</time>
      </trkpt>
      <trkpt lat="49.28206" lon="1.3043">
        <ele>137</ele>
        <time>2013-05-07T13:12:19Z</time>
      </trkpt>
      <trkpt lat="49.28198" lon="1.30419">
        <ele>137</ele>
        <time>2013-05-07T13:12:30Z</time>
      </trkpt>
      <trkpt lat="49.28191" lon="1.30408">
        <ele>142</ele>
        <time>2013-05-07T13:12:41Z</time>
      </trkpt>
      <trkpt lat="49.28185" lon="1.30398">
        <ele>142</ele>
        <time>2013-05-07T13:12:51Z</time>
      </trkpt>
      <trkpt lat="49.28179" lon="1.30388">
        <ele>142</ele>
        <time>2013-05-07T13:13:00Z</time>
      </trkpt>
      <trkpt lat="49.28171" lon="1.30379">
        <ele>142</ele>
        <time>2013-05-07T13:13:09Z</time>
      </trkpt>
      <trkpt lat="49.28164" lon="1.3037">
        <ele>142</ele>
        <time>2013-05-07T13:13:19Z</time>
      </trkpt>
      <trkpt lat="49.28156" lon="1.30361">
        <ele>142</ele>
        <time>2013-05-07T13:13:28Z</time>
      </trkpt>
      <trkpt lat="49.28149" lon="1.30351">
        <ele>142</ele>
        <time>2013-05-07T13:13:37Z</time>
      </trkpt>
      <trkpt lat="49.28141" lon="1.30343">
        <ele>142</ele>
        <time>2013-05-07T13:13:46Z</time>
      </trkpt>
      <trkpt lat="49.28133" lon="1.30333">
        <ele>142</ele>
        <time>2013-05-07T13:13:55Z</time>
      </trkpt>
      <trkpt lat="49.28125" lon="1.30324">
        <ele>142</ele>
        <time>2013-05-07T13:14:04Z</time>
      </trkpt>
      <trkpt lat="49.28117" lon="1.30315">
        <ele>142</ele>
        <time>2013-05-07T13:14:13Z</time>
      </trkpt>
      <trkpt lat="49.28111" lon="1.30305">
        <ele>148</ele>
        <time>2013-05-07T13:14:22Z</time>
      </trkpt>
      <trkpt lat="49.28103" lon="1.30299">
        <ele>148</ele>
        <time>2013-05-07T13:14:30Z</time>
      </trkpt>
      <trkpt lat="49.28095" lon="1.30289">
        <ele>148</ele>
        <time>2013-05-07T13:14:41Z</time>
      </trkpt>
      <trkpt lat="49.28088" lon="1.30279">
        <ele>148</ele>
        <time>2013-05-07T13:14:50Z</time>
      </trkpt>
      <trkpt lat="49.28081" lon="1.3027">
        <ele>148</ele>
        <time>2013-05-07T13:14:59Z</time>
      </trkpt>
      <trkpt lat="49.28074" lon="1.30261">
        <ele>148</ele>
        <time>2013-05-07T13:15:07Z</time>
      </trkpt>
      <trkpt lat="49.28067" lon="1.30252">
        <ele>148</ele>
        <time>2013-05-07T13:15:15Z</time>
      </trkpt>
      <trkpt lat="49.2806" lon="1.30243">
        <ele>148</ele>
        <time>2013-05-07T13:15:23Z</time>
      </trkpt>
      <trkpt lat="49.28053" lon="1.30234">
        <ele>148</ele>
        <time>2013-05-07T13:15:31Z</time>
      </trkpt>
      <trkpt lat="49.28046" lon="1.30224">
        <ele>148</ele>
        <time>2013-05-07T13:15:39Z</time>
      </trkpt>
      <trkpt lat="49.28038" lon="1.30214">
        <ele>148</ele>
        <time>2013-05-07T13:15:48Z</time>
      </trkpt>
      <trkpt lat="49.2803" lon="1.30206">
        <ele>148</ele>
        <time>2013-05-07T13:15:57Z</time>
      </trkpt>
      <trkpt lat="49.28023" lon="1.30197">
        <ele>148</ele>
        <time>2013-05-07T13:16:06Z</time>
      </trkpt>
      <trkpt lat="49.28015" lon="1.30191">
        <ele>148</ele>
        <time>2013-05-07T13:16:18Z</time>
      </trkpt>
      <trkpt lat="49.28009" lon="1.30181">
        <ele>148</ele>
        <time>2013-05-07T13:21:29Z</time>
      </trkpt>
      <trkpt lat="49.28001" lon="1.30172">
        <ele>148</ele>
        <time>2013-05-07T13:21:39Z</time>
      </trkpt>
      <trkpt lat="49.27994" lon="1.30162">
        <ele>148</ele>
        <time>2013-05-07T13:21:48Z</time>
      </trkpt>
      <trkpt lat="49.27987" lon="1.30153">
        <ele>148</ele>
        <time>2013-05-07T13:21:57Z</time>
      </trkpt>
      <trkpt lat="49.27979" lon="1.30143">
        <ele>148</ele>
        <time>2013-05-07T13:22:06Z</time>
      </trkpt>
      <trkpt lat="49.27972" lon="1.30135">
        <ele>148</ele>
        <time>2013-05-07T13:22:15Z</time>
      </trkpt>
      <trkpt lat="49.27964" lon="1.30126">
        <ele>148</ele>
        <time>2013-05-07T13:22:24Z</time>
      </trkpt>
      <trkpt lat="49.27956" lon="1.30118">
        <ele>148</ele>
        <time>2013-05-07T13:22:33Z</time>
      </trkpt>
      <trkpt lat="49.27948" lon="1.3011">
        <ele>148</ele>
        <time>2013-05-07T13:22:41Z</time>
      </trkpt>
      <trkpt lat="49.27939" lon="1.30103">
        <ele>148</ele>
        <time>2013-05-07T13:22:50Z</time>
      </trkpt>
      <trkpt lat="49.2793" lon="1.30096">
        <ele>148</ele>
        <time>2013-05-07T13:22:58Z</time>
      </trkpt>
      <trkpt lat="49.27921" lon="1.3009">
        <ele>148</ele>
        <time>2013-05-07T13:23:07Z</time>
      </trkpt>
      <trkpt lat="49.27912" lon="1.30083">
        <ele>148</ele>
        <time>2013-05-07T13:23:16Z</time>
      </trkpt>
      <trkpt lat="49.27902" lon="1.30077">
        <ele>148</ele>
        <time>2013-05-07T13:23:25Z</time>
      </trkpt>
      <trkpt lat="49.27893" lon="1.30072">
        <ele>148</ele>
        <time>2013-05-07T13:23:33Z</time>
      </trkpt>
      <trkpt lat="49.27885" lon="1.30065">
        <ele>148</ele>
        <time>2013-05-07T13:23:42Z</time>
      </trkpt>
      <trkpt lat="49.27876" lon="1.30059">
        <ele>148</ele>
        <time>2013-05-07T13:23:50Z</time>
      </trkpt>
      <trkpt lat="49.27868" lon="1.30053">
        <ele>148</ele>
        <time>2013-05-07T13:23:58Z</time>
      </trkpt>
      <trkpt lat="49.27859" lon="1.30046">
        <ele>148</ele>
        <time>2013-05-07T13:24:06Z</time>
      </trkpt>
      <trkpt lat="49.2785" lon="1.3004">
        <ele>148</ele>
        <time>2013-05-07T13:24:15Z</time>
      </trkpt>
      <trkpt lat="49.27842" lon="1.30034">
        <ele>148</ele>
        <time>2013-05-07T13:24:23Z</time>
      </trkpt>
      <trkpt lat="49.27833" lon="1.30028">
        <ele>148</ele>
        <time>2013-05-07T13:24:31Z</time>
      </trkpt>
      <trkpt lat="49.27824" lon="1.30022">
        <ele>148</ele>
        <time>2013-05-07T13:24:40Z</time>
      </trkpt>
      <trkpt lat="49.27815" lon="1.30016">
        <ele>148</ele>
        <time>2013-05-07T13:24:49Z</time>
      </trkpt>
      <trkpt lat="49.27806" lon="1.3001">
        <ele>148</ele>
        <time>2013-05-07T13:24:57Z</time>
      </trkpt>
      <trkpt lat="49.27797" lon="1.30003">
        <ele>148</ele>
        <time>2013-05-07T13:25:05Z</time>
      </trkpt>
      <trkpt lat="49.27788" lon="1.29997">
        <ele>148</ele>
        <time>2013-05-07T13:25:13Z</time>
      </trkpt>
      <trkpt lat="49.27779" lon="1.29991">
        <ele>148</ele>
        <time>2013-05-07T13:25:22Z</time>
      </trkpt>
      <trkpt lat="49.2777" lon="1.29984">
        <ele>148</ele>
        <time>2013-05-07T13:25:30Z</time>
      </trkpt>
      <trkpt lat="49.27761" lon="1.29978">
        <ele>148</ele>
        <time>2013-05-07T13:25:38Z</time>
      </trkpt>
      <trkpt lat="49.27752" lon="1.29972">
        <ele>148</ele>
        <time>2013-05-07T13:25:46Z</time>
      </trkpt>
      <trkpt lat="49.27744" lon="1.29966">
        <ele>148</ele>
        <time>2013-05-07T13:25:54Z</time>
      </trkpt>
      <trkpt lat="49.27735" lon="1.29961">
        <ele>148</ele>
        <time>2013-05-07T13:26:01Z</time>
      </trkpt>
      <trkpt lat="49.27726" lon="1.29956">
        <ele>148</ele>
        <time>2013-05-07T13:26:09Z</time>
      </trkpt>
      <trkpt lat="49.27717" lon="1.29951">
        <ele>148</ele>
        <time>2013-05-07T13:26:15Z</time>
      </trkpt>
      <trkpt lat="49.27708" lon="1.29945">
        <ele>148</ele>
        <time>2013-05-07T13:26:23Z</time>
      </trkpt>
      <trkpt lat="49.27699" lon="1.2994">
        <ele>148</ele>
        <time>2013-05-07T13:26:31Z</time>
      </trkpt>
      <trkpt lat="49.2769" lon="1.29934">
        <ele>148</ele>
        <time>2013-05-07T13:26:39Z</time>
      </trkpt>
      <trkpt lat="49.27681" lon="1.29929">
        <ele>148</ele>
        <time>2013-05-07T13:26:47Z</time>
      </trkpt>
      <trkpt lat="49.27671" lon="1.29925">
        <ele>148</ele>
        <time>2013-05-07T13:26:56Z</time>
      </trkpt>
      <trkpt lat="49.27661" lon="1.29924">
        <ele>148</ele>
        <time>2013-05-07T13:27:04Z</time>
      </trkpt>
      <trkpt lat="49.27651" lon="1.29924">
        <ele>148</ele>
        <time>2013-05-07T13:27:12Z</time>
      </trkpt>
      <trkpt lat="49.27642" lon="1.29924">
        <ele>148</ele>
        <time>2013-05-07T13:27:20Z</time>
      </trkpt>
      <trkpt lat="49.27632" lon="1.29925">
        <ele>148</ele>
        <time>2013-05-07T13:27:28Z</time>
      </trkpt>
      <trkpt lat="49.27622" lon="1.29926">
        <ele>142</ele>
        <time>2013-05-07T13:27:36Z</time>
      </trkpt>
      <trkpt lat="49.27613" lon="1.29926">
        <ele>142</ele>
        <time>2013-05-07T13:27:44Z</time>
      </trkpt>
      <trkpt lat="49.27603" lon="1.29926">
        <ele>142</ele>
        <time>2013-05-07T13:27:52Z</time>
      </trkpt>
      <trkpt lat="49.27593" lon="1.29926">
        <ele>142</ele>
        <time>2013-05-07T13:28:00Z</time>
      </trkpt>
      <trkpt lat="49.27584" lon="1.29925">
        <ele>142</ele>
        <time>2013-05-07T13:28:08Z</time>
      </trkpt>
      <trkpt lat="49.27574" lon="1.29927">
        <ele>142</ele>
        <time>2013-05-07T13:28:16Z</time>
      </trkpt>
      <trkpt lat="49.27563" lon="1.29927">
        <ele>142</ele>
        <time>2013-05-07T13:28:24Z</time>
      </trkpt>
      <trkpt lat="49.27553" lon="1.29927">
        <ele>142</ele>
        <time>2013-05-07T13:28:32Z</time>
      </trkpt>
      <trkpt lat="49.27544" lon="1.29928">
        <ele>142</ele>
        <time>2013-05-07T13:28:39Z</time>
      </trkpt>
      <trkpt lat="49.27534" lon="1.29932">
        <ele>142</ele>
        <time>2013-05-07T13:28:47Z</time>
      </trkpt>
      <trkpt lat="49.27525" lon="1.29935">
        <ele>142</ele>
        <time>2013-05-07T13:28:55Z</time>
      </trkpt>
      <trkpt lat="49.27516" lon="1.29936">
        <ele>142</ele>
        <time>2013-05-07T13:29:02Z</time>
      </trkpt>
      <trkpt lat="49.27506" lon="1.29938">
        <ele>142</ele>
        <time>2013-05-07T13:29:10Z</time>
      </trkpt>
      <trkpt lat="49.27497" lon="1.2994">
        <ele>142</ele>
        <time>2013-05-07T13:29:18Z</time>
      </trkpt>
      <trkpt lat="49.27487" lon="1.29943">
        <ele>142</ele>
        <time>2013-05-07T13:29:26Z</time>
      </trkpt>
      <trkpt lat="49.27478" lon="1.29948">
        <ele>142</ele>
        <time>2013-05-07T13:29:35Z</time>
      </trkpt>
      <trkpt lat="49.27469" lon="1.29953">
        <ele>142</ele>
        <time>2013-05-07T13:29:45Z</time>
      </trkpt>
      <trkpt lat="49.2746" lon="1.29957">
        <ele>142</ele>
        <time>2013-05-07T13:29:53Z</time>
      </trkpt>
      <trkpt lat="49.2745" lon="1.29961">
        <ele>142</ele>
        <time>2013-05-07T13:30:06Z</time>
      </trkpt>
      <trkpt lat="49.2744" lon="1.2996">
        <ele>142</ele>
        <time>2013-05-07T13:30:16Z</time>
      </trkpt>
      <trkpt lat="49.27434" lon="1.29971">
        <ele>136</ele>
        <time>2013-05-07T13:31:19Z</time>
      </trkpt>
      <trkpt lat="49.27426" lon="1.29978">
        <ele>136</ele>
        <time>2013-05-07T13:31:27Z</time>
      </trkpt>
      <trkpt lat="49.27417" lon="1.29984">
        <ele>136</ele>
        <time>2013-05-07T13:31:35Z</time>
      </trkpt>
      <trkpt lat="49.27408" lon="1.29992">
        <ele>136</ele>
        <time>2013-05-07T13:31:43Z</time>
      </trkpt>
      <trkpt lat="49.27399" lon="1.29998">
        <ele>130</ele>
        <time>2013-05-07T13:31:51Z</time>
      </trkpt>
      <trkpt lat="49.2739" lon="1.30002">
        <ele>130</ele>
        <time>2013-05-07T13:31:58Z</time>
      </trkpt>
      <trkpt lat="49.2738" lon="1.30003">
        <ele>130</ele>
        <time>2013-05-07T13:32:06Z</time>
      </trkpt>
      <trkpt lat="49.2737" lon="1.30003">
        <ele>130</ele>
        <time>2013-05-07T13:32:13Z</time>
      </trkpt>
      <trkpt lat="49.27361" lon="1.30004">
        <ele>130</ele>
        <time>2013-05-07T13:32:20Z</time>
      </trkpt>
      <trkpt lat="49.2735" lon="1.30005">
        <ele>125</ele>
        <time>2013-05-07T13:32:28Z</time>
      </trkpt>
      <trkpt lat="49.2734" lon="1.30007">
        <ele>125</ele>
        <time>2013-05-07T13:32:36Z</time>
      </trkpt>
      <trkpt lat="49.2733" lon="1.30007">
        <ele>125</ele>
        <time>2013-05-07T13:32:44Z</time>
      </trkpt>
      <trkpt lat="49.2732" lon="1.30009">
        <ele>125</ele>
        <time>2013-05-07T13:32:52Z</time>
      </trkpt>
      <trkpt lat="49.2731" lon="1.3001">
        <ele>119</ele>
        <time>2013-05-07T13:33:00Z</time>
      </trkpt>
      <trkpt lat="49.27301" lon="1.30009">
        <ele>119</ele>
        <time>2013-05-07T13:33:10Z</time>
      </trkpt>
      <trkpt lat="49.27291" lon="1.30009">
        <ele>119</ele>
        <time>2013-05-07T13:33:21Z</time>
      </trkpt>
      <trkpt lat="49.27282" lon="1.3001">
        <ele>119</ele>
        <time>2013-05-07T13:33:29Z</time>
      </trkpt>
      <trkpt lat="49.27272" lon="1.30011">
        <ele>119</ele>
        <time>2013-05-07T13:33:38Z</time>
      </trkpt>
      <trkpt lat="49.27263" lon="1.30014">
        <ele>113</ele>
        <time>2013-05-07T13:33:48Z</time>
      </trkpt>
      <trkpt lat="49.27253" lon="1.30016">
        <ele>113</ele>
        <time>2013-05-07T13:33:57Z</time>
      </trkpt>
      <trkpt lat="49.27244" lon="1.30019">
        <ele>113</ele>
        <time>2013-05-07T13:34:06Z</time>
      </trkpt>
      <trkpt lat="49.27235" lon="1.30021">
        <ele>108</ele>
        <time>2013-05-07T13:34:14Z</time>
      </trkpt>
      <trkpt lat="49.27225" lon="1.30024">
        <ele>108</ele>
        <time>2013-05-07T13:34:23Z</time>
      </trkpt>
      <trkpt lat="49.27216" lon="1.30028">
        <ele>103</ele>
        <time>2013-05-07T13:34:31Z</time>
      </trkpt>
      <trkpt lat="49.27207" lon="1.30033">
        <ele>103</ele>
        <time>2013-05-07T13:34:39Z</time>
      </trkpt>
      <trkpt lat="49.27198" lon="1.30037">
        <ele>103</ele>
        <time>2013-05-07T13:34:47Z</time>
      </trkpt>
      <trkpt lat="49.27188" lon="1.30039">
        <ele>103</ele>
        <time>2013-05-07T13:34:55Z</time>
      </trkpt>
      <trkpt lat="49.27178" lon="1.30046">
        <ele>103</ele>
        <time>2013-05-07T13:35:04Z</time>
      </trkpt>
      <trkpt lat="49.27171" lon="1.30055">
        <ele>103</ele>
        <time>2013-05-07T13:35:12Z</time>
      </trkpt>
      <trkpt lat="49.27166" lon="1.30042">
        <ele>97</ele>
        <time>2013-05-07T13:35:34Z</time>
      </trkpt>
      <trkpt lat="49.27163" lon="1.30028">
        <ele>97</ele>
        <time>2013-05-07T13:36:02Z</time>
      </trkpt>
      <trkpt lat="49.27157" lon="1.30019">
        <ele>97</ele>
        <time>2013-05-07T13:36:14Z</time>
      </trkpt>
      <trkpt lat="49.27148" lon="1.30011">
        <ele>92</ele>
        <time>2013-05-07T13:36:26Z</time>
      </trkpt>
      <trkpt lat="49.27139" lon="1.30012">
        <ele>92</ele>
        <time>2013-05-07T13:36:37Z</time>
      </trkpt>
      <trkpt lat="49.27129" lon="1.30014">
        <ele>92</ele>
        <time>2013-05-07T13:36:48Z</time>
      </trkpt>
      <trkpt lat="49.27121" lon="1.3002">
        <ele>92</ele>
        <time>2013-05-07T13:36:58Z</time>
      </trkpt>
      <trkpt lat="49.27111" lon="1.30026">
        <ele>86</ele>
        <time>2013-05-07T13:37:08Z</time>
      </trkpt>
      <trkpt lat="49.27103" lon="1.30034">
        <ele>86</ele>
        <time>2013-05-07T13:37:18Z</time>
      </trkpt>
      <trkpt lat="49.27094" lon="1.30037">
        <ele>81</ele>
        <time>2013-05-07T13:37:28Z</time>
      </trkpt>
      <trkpt lat="49.27084" lon="1.3004">
        <ele>81</ele>
        <time>2013-05-07T13:37:37Z</time>
      </trkpt>
      <trkpt lat="49.27074" lon="1.30041">
        <ele>81</ele>
        <time>2013-05-07T13:37:46Z</time>
      </trkpt>
      <trkpt lat="49.27065" lon="1.3004">
        <ele>74</ele>
        <time>2013-05-07T13:37:55Z</time>
      </trkpt>
      <trkpt lat="49.27055" lon="1.30038">
        <ele>74</ele>
        <time>2013-05-07T13:38:04Z</time>
      </trkpt>
      <trkpt lat="49.27046" lon="1.30037">
        <ele>74</ele>
        <time>2013-05-07T13:38:13Z</time>
      </trkpt>
      <trkpt lat="49.27036" lon="1.30037">
        <ele>74</ele>
        <time>2013-05-07T13:38:22Z</time>
      </trkpt>
      <trkpt lat="49.27026" lon="1.30037">
        <ele>68</ele>
        <time>2013-05-07T13:38:31Z</time>
      </trkpt>
      <trkpt lat="49.27017" lon="1.30036">
        <ele>68</ele>
        <time>2013-05-07T13:38:39Z</time>
      </trkpt>
      <trkpt lat="49.27007" lon="1.30037">
        <ele>68</ele>
        <time>2013-05-07T13:38:48Z</time>
      </trkpt>
      <trkpt lat="49.26997" lon="1.30038">
        <ele>68</ele>
        <time>2013-05-07T13:38:57Z</time>
      </trkpt>
      <trkpt lat="49.26988" lon="1.3004">
        <ele>68</ele>
        <time>2013-05-07T13:39:05Z</time>
      </trkpt>
      <trkpt lat="49.26978" lon="1.30042">
        <ele>68</ele>
        <time>2013-05-07T13:39:14Z</time>
      </trkpt>
      <trkpt lat="49.26969" lon="1.30046">
        <ele>63</ele>
        <time>2013-05-07T13:39:22Z</time>
      </trkpt>
      <trkpt lat="49.2696" lon="1.30054">
        <ele>63</ele>
        <time>2013-05-07T13:39:31Z</time>
      </trkpt>
      <trkpt lat="49.26952" lon="1.30063">
        <ele>63</ele>
        <time>2013-05-07T13:39:40Z</time>
      </trkpt>
      <trkpt lat="49.26945" lon="1.30073">
        <ele>63</ele>
        <time>2013-05-07T13:39:49Z</time>
      </trkpt>
      <trkpt lat="49.26938" lon="1.30083">
        <ele>63</ele>
        <time>2013-05-07T13:39:58Z</time>
      </trkpt>
      <trkpt lat="49.26932" lon="1.30095">
        <ele>63</ele>
        <time>2013-05-07T13:40:07Z</time>
      </trkpt>
      <trkpt lat="49.26927" lon="1.30108">
        <ele>63</ele>
        <time>2013-05-07T13:40:16Z</time>
      </trkpt>
      <trkpt lat="49.26922" lon="1.30121">
        <ele>63</ele>
        <time>2013-05-07T13:40:25Z</time>
      </trkpt>
      <trkpt lat="49.26917" lon="1.30134">
        <ele>63</ele>
        <time>2013-05-07T13:40:33Z</time>
      </trkpt>
      <trkpt lat="49.26911" lon="1.30146">
        <ele>63</ele>
        <time>2013-05-07T13:40:42Z</time>
      </trkpt>
      <trkpt lat="49.26906" lon="1.30158">
        <ele>63</ele>
        <time>2013-05-07T13:40:51Z</time>
      </trkpt>
      <trkpt lat="49.269" lon="1.3017">
        <ele>63</ele>
        <time>2013-05-07T13:41:00Z</time>
      </trkpt>
      <trkpt lat="49.26895" lon="1.30183">
        <ele>63</ele>
        <time>2013-05-07T13:41:09Z</time>
      </trkpt>
      <trkpt lat="49.26888" lon="1.30194">
        <ele>63</ele>
        <time>2013-05-07T13:41:17Z</time>
      </trkpt>
      <trkpt lat="49.26882" lon="1.30204">
        <ele>63</ele>
        <time>2013-05-07T13:41:25Z</time>
      </trkpt>
      <trkpt lat="49.26874" lon="1.30211">
        <ele>63</ele>
        <time>2013-05-07T13:41:33Z</time>
      </trkpt>
      <trkpt lat="49.26865" lon="1.30214">
        <ele>63</ele>
        <time>2013-05-07T13:41:41Z</time>
      </trkpt>
      <trkpt lat="49.26856" lon="1.30218">
        <ele>57</ele>
        <time>2013-05-07T13:41:50Z</time>
      </trkpt>
      <trkpt lat="49.26847" lon="1.30219">
        <ele>57</ele>
        <time>2013-05-07T13:41:59Z</time>
      </trkpt>
      <trkpt lat="49.26837" lon="1.30223">
        <ele>57</ele>
        <time>2013-05-07T13:42:10Z</time>
      </trkpt>
      <trkpt lat="49.26827" lon="1.30223">
        <ele>57</ele>
        <time>2013-05-07T13:42:19Z</time>
      </trkpt>
      <trkpt lat="49.26818" lon="1.30223">
        <ele>57</ele>
        <time>2013-05-07T13:42:27Z</time>
      </trkpt>
      <trkpt lat="49.26808" lon="1.30223">
        <ele>57</ele>
        <time>2013-05-07T13:42:35Z</time>
      </trkpt>
      <trkpt lat="49.26798" lon="1.30223">
        <ele>51</ele>
        <time>2013-05-07T13:42:45Z</time>
      </trkpt>
      <trkpt lat="49.26788" lon="1.3022">
        <ele>51</ele>
        <time>2013-05-07T13:42:54Z</time>
      </trkpt>
      <trkpt lat="49.2678" lon="1.30216">
        <ele>51</ele>
        <time>2013-05-07T13:43:02Z</time>
      </trkpt>
      <trkpt lat="49.2677" lon="1.30214">
        <ele>51</ele>
        <time>2013-05-07T13:43:10Z</time>
      </trkpt>
      <trkpt lat="49.2676" lon="1.30211">
        <ele>51</ele>
        <time>2013-05-07T13:43:19Z</time>
      </trkpt>
      <trkpt lat="49.2675" lon="1.30208">
        <ele>45</ele>
        <time>2013-05-07T13:43:27Z</time>
      </trkpt>
      <trkpt lat="49.26741" lon="1.30206">
        <ele>45</ele>
        <time>2013-05-07T13:43:35Z</time>
      </trkpt>
      <trkpt lat="49.26731" lon="1.30205">
        <ele>45</ele>
        <time>2013-05-07T13:43:44Z</time>
      </trkpt>
      <trkpt lat="49.26722" lon="1.30201">
        <ele>45</ele>
        <time>2013-05-07T13:43:52Z</time>
      </trkpt>
      <trkpt lat="49.26713" lon="1.30197">
        <ele>45</ele>
        <time>2013-05-07T13:44:01Z</time>
      </trkpt>
      <trkpt lat="49.26703" lon="1.30195">
        <ele>45</ele>
        <time>2013-05-07T13:44:10Z</time>
      </trkpt>
      <trkpt lat="49.26693" lon="1.30192">
        <ele>45</ele>
        <time>2013-05-07T13:44:19Z</time>
      </trkpt>
      <trkpt lat="49.26684" lon="1.30189">
        <ele>45</ele>
        <time>2013-05-07T13:44:27Z</time>
      </trkpt>
      <trkpt lat="49.26674" lon="1.30187">
        <ele>45</ele>
        <time>2013-05-07T13:44:35Z</time>
      </trkpt>
      <trkpt lat="49.26665" lon="1.30185">
        <ele>39</ele>
        <time>2013-05-07T13:44:44Z</time>
      </trkpt>
      <trkpt lat="49.26656" lon="1.30183">
        <ele>39</ele>
        <time>2013-05-07T13:44:52Z</time>
      </trkpt>
      <trkpt lat="49.26646" lon="1.30182">
        <ele>39</ele>
        <time>2013-05-07T13:45:00Z</time>
      </trkpt>
      <trkpt lat="49.26636" lon="1.3018">
        <ele>39</ele>
        <time>2013-05-07T13:45:08Z</time>
      </trkpt>
      <trkpt lat="49.26627" lon="1.30178">
        <ele>39</ele>
        <time>2013-05-07T13:45:16Z</time>
      </trkpt>
      <trkpt lat="49.26618" lon="1.30174">
        <ele>39</ele>
        <time>2013-05-07T13:45:25Z</time>
      </trkpt>
      <trkpt lat="49.26609" lon="1.30173">
        <ele>39</ele>
        <time>2013-05-07T13:45:38Z</time>
      </trkpt>
      <trkpt lat="49.26601" lon="1.30164">
        <ele>39</ele>
        <time>2013-05-07T13:45:48Z</time>
      </trkpt>
      <trkpt lat="49.26599" lon="1.30151">
        <ele>39</ele>
        <time>2013-05-07T13:45:56Z</time>
      </trkpt>
      <trkpt lat="49.26599" lon="1.30136">
        <ele>39</ele>
        <time>2013-05-07T13:46:04Z</time>
      </trkpt>
      <trkpt lat="49.26598" lon="1.30122">
        <ele>39</ele>
        <time>2013-05-07T13:46:12Z</time>
      </trkpt>
      <trkpt lat="49.26597" lon="1.30108">
        <ele>33</ele>
        <time>2013-05-07T13:46:20Z</time>
      </trkpt>
      <trkpt lat="49.26597" lon="1.30093">
        <ele>33</ele>
        <time>2013-05-07T13:46:28Z</time>
      </trkpt>
      <trkpt lat="49.26596" lon="1.30079">
        <ele>33</ele>
        <time>2013-05-07T13:46:36Z</time>
      </trkpt>
      <trkpt lat="49.26596" lon="1.30064">
        <ele>33</ele>
        <time>2013-05-07T13:46:44Z</time>
      </trkpt>
      <trkpt lat="49.26596" lon="1.30049">
        <ele>33</ele>
        <time>2013-05-07T13:46:52Z</time>
      </trkpt>
      <trkpt lat="49.26595" lon="1.30035">
        <ele>33</ele>
        <time>2013-05-07T13:47:00Z</time>
      </trkpt>
      <trkpt lat="49.26594" lon="1.3002">
        <ele>33</ele>
        <time>2013-05-07T13:47:08Z</time>
      </trkpt>
      <trkpt lat="49.26594" lon="1.30004">
        <ele>33</ele>
        <time>2013-05-07T13:47:16Z</time>
      </trkpt>
      <trkpt lat="49.26593" lon="1.29989">
        <ele>33</ele>
        <time>2013-05-07T13:47:24Z</time>
      </trkpt>
      <trkpt lat="49.26594" lon="1.29974">
        <ele>33</ele>
        <time>2013-05-07T13:47:33Z</time>
      </trkpt>
      <trkpt lat="49.26593" lon="1.29959">
        <ele>33</ele>
        <time>2013-05-07T13:47:41Z</time>
      </trkpt>
      <trkpt lat="49.26593" lon="1.29945">
        <ele>33</ele>
        <time>2013-05-07T13:47:49Z</time>
      </trkpt>
      <trkpt lat="49.26592" lon="1.29929">
        <ele>33</ele>
        <time>2013-05-07T13:47:57Z</time>
      </trkpt>
      <trkpt lat="49.2659" lon="1.29915">
        <ele>33</ele>
        <time>2013-05-07T13:48:04Z</time>
      </trkpt>
      <trkpt lat="49.26587" lon="1.29901">
        <ele>33</ele>
        <time>2013-05-07T13:48:11Z</time>
      </trkpt>
      <trkpt lat="49.26584" lon="1.29886">
        <ele>33</ele>
        <time>2013-05-07T13:48:19Z</time>
      </trkpt>
      <trkpt lat="49.26582" lon="1.29871">
        <ele>33</ele>
        <time>2013-05-07T13:48:27Z</time>
      </trkpt>
      <trkpt lat="49.26579" lon="1.29858">
        <ele>33</ele>
        <time>2013-05-07T13:48:34Z</time>
      </trkpt>
      <trkpt lat="49.26576" lon="1.29844">
        <ele>33</ele>
        <time>2013-05-07T13:48:42Z</time>
      </trkpt>
      <trkpt lat="49.26572" lon="1.2983">
        <ele>33</ele>
        <time>2013-05-07T13:48:50Z</time>
      </trkpt>
      <trkpt lat="49.26569" lon="1.29816">
        <ele>33</ele>
        <time>2013-05-07T13:48:58Z</time>
      </trkpt>
      <trkpt lat="49.26565" lon="1.29801">
        <ele>28</ele>
        <time>2013-05-07T13:49:06Z</time>
      </trkpt>
      <trkpt lat="49.26562" lon="1.29787">
        <ele>28</ele>
        <time>2013-05-07T13:49:14Z</time>
      </trkpt>
      <trkpt lat="49.26559" lon="1.29773">
        <ele>28</ele>
        <time>2013-05-07T13:49:22Z</time>
      </trkpt>
      <trkpt lat="49.26556" lon="1.29759">
        <ele>28</ele>
        <time>2013-05-07T13:49:30Z</time>
      </trkpt>
      <trkpt lat="49.26552" lon="1.29746">
        <ele>28</ele>
        <time>2013-05-07T13:49:38Z</time>
      </trkpt>
      <trkpt lat="49.26549" lon="1.29731">
        <ele>28</ele>
        <time>2013-05-07T13:49:46Z</time>
      </trkpt>
      <trkpt lat="49.26546" lon="1.29718">
        <ele>28</ele>
        <time>2013-05-07T13:49:54Z</time>
      </trkpt>
      <trkpt lat="49.26542" lon="1.29703">
        <ele>28</ele>
        <time>2013-05-07T13:50:02Z</time>
      </trkpt>
      <trkpt lat="49.26539" lon="1.29689">
        <ele>28</ele>
        <time>2013-05-07T13:50:10Z</time>
      </trkpt>
      <trkpt lat="49.26535" lon="1.29675">
        <ele>28</ele>
        <time>2013-05-07T13:50:18Z</time>
      </trkpt>
      <trkpt lat="49.26532" lon="1.29661">
        <ele>28</ele>
        <time>2013-05-07T13:50:26Z</time>
      </trkpt>
      <trkpt lat="49.26528" lon="1.29647">
        <ele>28</ele>
        <time>2013-05-07T13:50:34Z</time>
      </trkpt>
      <trkpt lat="49.26525" lon="1.29633">
        <ele>28</ele>
        <time>2013-05-07T13:50:42Z</time>
      </trkpt>
      <trkpt lat="49.26522" lon="1.29619">
        <ele>28</ele>
        <time>2013-05-07T13:50:50Z</time>
      </trkpt>
      <trkpt lat="49.26519" lon="1.29604">
        <ele>28</ele>
        <time>2013-05-07T13:50:58Z</time>
      </trkpt>
      <trkpt lat="49.26516" lon="1.2959">
        <ele>28</ele>
        <time>2013-05-07T13:51:06Z</time>
      </trkpt>
      <trkpt lat="49.26513" lon="1.29577">
        <ele>28</ele>
        <time>2013-05-07T13:51:13Z</time>
      </trkpt>
      <trkpt lat="49.26509" lon="1.29563">
        <ele>28</ele>
        <time>2013-05-07T13:51:21Z</time>
      </trkpt>
      <trkpt lat="49.26506" lon="1.29549">
        <ele>28</ele>
        <time>2013-05-07T13:51:30Z</time>
      </trkpt>
      <trkpt lat="49.26503" lon="1.29535">
        <ele>28</ele>
        <time>2013-05-07T13:51:51Z</time>
      </trkpt>
      <trkpt lat="49.265" lon="1.29521">
        <ele>28</ele>
        <time>2013-05-07T13:51:59Z</time>
      </trkpt>
      <trkpt lat="49.26496" lon="1.29507">
        <ele>28</ele>
        <time>2013-05-07T13:52:06Z</time>
      </trkpt>
      <trkpt lat="49.26493" lon="1.29494">
        <ele>28</ele>
        <time>2013-05-07T13:52:13Z</time>
      </trkpt>
      <trkpt lat="49.2649" lon="1.2948">
        <ele>28</ele>
        <time>2013-05-07T13:52:20Z</time>
      </trkpt>
      <trkpt lat="49.26486" lon="1.29466">
        <ele>28</ele>
        <time>2013-05-07T13:52:27Z</time>
      </trkpt>
      <trkpt lat="49.26483" lon="1.29453">
        <ele>28</ele>
        <time>2013-05-07T13:52:34Z</time>
      </trkpt>
      <trkpt lat="49.2648" lon="1.29438">
        <ele>28</ele>
        <time>2013-05-07T13:52:42Z</time>
      </trkpt>
      <trkpt lat="49.26476" lon="1.29425">
        <ele>28</ele>
        <time>2013-05-07T13:52:49Z</time>
      </trkpt>
      <trkpt lat="49.26474" lon="1.29411">
        <ele>28</ele>
        <time>2013-05-07T13:52:56Z</time>
      </trkpt>
      <trkpt lat="49.2647" lon="1.29397">
        <ele>28</ele>
        <time>2013-05-07T13:53:04Z</time>
      </trkpt>
      <trkpt lat="49.26467" lon="1.29384">
        <ele>28</ele>
        <time>2013-05-07T13:53:11Z</time>
      </trkpt>
      <trkpt lat="49.26464" lon="1.2937">
        <ele>28</ele>
        <time>2013-05-07T13:53:18Z</time>
      </trkpt>
      <trkpt lat="49.26461" lon="1.29357">
        <ele>28</ele>
        <time>2013-05-07T13:53:25Z</time>
      </trkpt>
      <trkpt lat="49.26458" lon="1.29342">
        <ele>28</ele>
        <time>2013-05-07T13:53:33Z</time>
      </trkpt>
      <trkpt lat="49.26455" lon="1.29329">
        <ele>28</ele>
        <time>2013-05-07T13:53:40Z</time>
      </trkpt>
      <trkpt lat="49.26452" lon="1.29315">
        <ele>28</ele>
        <time>2013-05-07T13:53:47Z</time>
      </trkpt>
      <trkpt lat="49.26448" lon="1.29301">
        <ele>28</ele>
        <time>2013-05-07T13:53:55Z</time>
      </trkpt>
      <trkpt lat="49.26444" lon="1.29286">
        <ele>28</ele>
        <time>2013-05-07T13:54:03Z</time>
      </trkpt>
      <trkpt lat="49.26442" lon="1.29272">
        <ele>28</ele>
        <time>2013-05-07T13:54:11Z</time>
      </trkpt>
      <trkpt lat="49.26439" lon="1.29258">
        <ele>28</ele>
        <time>2013-05-07T13:54:19Z</time>
      </trkpt>
      <trkpt lat="49.26436" lon="1.29244">
        <ele>28</ele>
        <time>2013-05-07T13:54:26Z</time>
      </trkpt>
      <trkpt lat="49.26433" lon="1.29231">
        <ele>28</ele>
        <time>2013-05-07T13:54:33Z</time>
      </trkpt>
      <trkpt lat="49.2643" lon="1.29217">
        <ele>28</ele>
        <time>2013-05-07T13:54:41Z</time>
      </trkpt>
      <trkpt lat="49.26427" lon="1.29204">
        <ele>28</ele>
        <time>2013-05-07T13:54:48Z</time>
      </trkpt>
      <trkpt lat="49.26423" lon="1.2919">
        <ele>28</ele>
        <time>2013-05-07T13:54:55Z</time>
      </trkpt>
      <trkpt lat="49.2642" lon="1.29177">
        <ele>28</ele>
        <time>2013-05-07T13:55:02Z</time>
      </trkpt>
      <trkpt lat="49.26415" lon="1.29163">
        <ele>28</ele>
        <time>2013-05-07T13:55:10Z</time>
      </trkpt>
      <trkpt lat="49.26411" lon="1.29151">
        <ele>28</ele>
        <time>2013-05-07T13:55:17Z</time>
      </trkpt>
      <trkpt lat="49.26406" lon="1.29139">
        <ele>28</ele>
        <time>2013-05-07T13:55:24Z</time>
      </trkpt>
      <trkpt lat="49.264" lon="1.29127">
        <ele>28</ele>
        <time>2013-05-07T13:55:32Z</time>
      </trkpt>
      <trkpt lat="49.26393" lon="1.29115">
        <ele>28</ele>
        <time>2013-05-07T13:55:40Z</time>
      </trkpt>
      <trkpt lat="49.26386" lon="1.29105">
        <ele>28</ele>
        <time>2013-05-07T13:55:47Z</time>
      </trkpt>
      <trkpt lat="49.26379" lon="1.29095">
        <ele>28</ele>
        <time>2013-05-07T13:55:54Z</time>
      </trkpt>
      <trkpt lat="49.26373" lon="1.29083">
        <ele>28</ele>
        <time>2013-05-07T13:56:02Z</time>
      </trkpt>
      <trkpt lat="49.26366" lon="1.29073">
        <ele>28</ele>
        <time>2013-05-07T13:56:10Z</time>
      </trkpt>
      <trkpt lat="49.26358" lon="1.29064">
        <ele>28</ele>
        <time>2013-05-07T13:56:17Z</time>
      </trkpt>
      <trkpt lat="49.2635" lon="1.29055">
        <ele>28</ele>
        <time>2013-05-07T13:56:24Z</time>
      </trkpt>
      <trkpt lat="49.26343" lon="1.29045">
        <ele>28</ele>
        <time>2013-05-07T13:56:33Z</time>
      </trkpt>
      <trkpt lat="49.26337" lon="1.29035">
        <ele>28</ele>
        <time>2013-05-07T13:56:40Z</time>
      </trkpt>
      <trkpt lat="49.26329" lon="1.29026">
        <ele>28</ele>
        <time>2013-05-07T13:56:48Z</time>
      </trkpt>
      <trkpt lat="49.26324" lon="1.29014">
        <ele>28</ele>
        <time>2013-05-07T13:56:55Z</time>
      </trkpt>
      <trkpt lat="49.2632" lon="1.29001">
        <ele>28</ele>
        <time>2013-05-07T13:57:23Z</time>
      </trkpt>
      <trkpt lat="49.26327" lon="1.28991">
        <ele>28</ele>
        <time>2013-05-07T13:57:36Z</time>
      </trkpt>
      <trkpt lat="49.26332" lon="1.28978">
        <ele>28</ele>
        <time>2013-05-07T13:57:48Z</time>
      </trkpt>
      <trkpt lat="49.26337" lon="1.28966">
        <ele>34</ele>
        <time>2013-05-07T13:57:59Z</time>
      </trkpt>
      <trkpt lat="49.2634" lon="1.28952">
        <ele>34</ele>
        <time>2013-05-07T13:58:14Z</time>
      </trkpt>
      <trkpt lat="49.26342" lon="1.28939">
        <ele>34</ele>
        <time>2013-05-07T13:58:25Z</time>
      </trkpt>
      <trkpt lat="49.26343" lon="1.28924">
        <ele>41</ele>
        <time>2013-05-07T13:58:36Z</time>
      </trkpt>
      <trkpt lat="49.26345" lon="1.28909">
        <ele>41</ele>
        <time>2013-05-07T13:58:47Z</time>
      </trkpt>
      <trkpt lat="49.26346" lon="1.28895">
        <ele>41</ele>
        <time>2013-05-07T13:59:00Z</time>
      </trkpt>
      <trkpt lat="49.26349" lon="1.2888">
        <ele>50</ele>
        <time>2013-05-07T13:59:13Z</time>
      </trkpt>
      <trkpt lat="49.26353" lon="1.28867">
        <ele>50</ele>
        <time>2013-05-07T13:59:27Z</time>
      </trkpt>
      <trkpt lat="49.26358" lon="1.28853">
        <ele>50</ele>
        <time>2013-05-07T13:59:37Z</time>
      </trkpt>
      <trkpt lat="49.26362" lon="1.28841">
        <ele>57</ele>
        <time>2013-05-07T13:59:52Z</time>
      </trkpt>
      <trkpt lat="49.26368" lon="1.2883">
        <ele>63</ele>
        <time>2013-05-07T14:00:05Z</time>
      </trkpt>
      <trkpt lat="49.26372" lon="1.28817">
        <ele>63</ele>
        <time>2013-05-07T14:00:17Z</time>
      </trkpt>
      <trkpt lat="49.26378" lon="1.28807">
        <ele>54</ele>
        <time>2013-05-07T14:00:31Z</time>
      </trkpt>
      <trkpt lat="49.26379" lon="1.28792">
        <ele>43</ele>
        <time>2013-05-07T14:14:22Z</time>
      </trkpt>
      <trkpt lat="49.26385" lon="1.2878">
        <ele>43</ele>
        <time>2013-05-07T14:14:33Z</time>
      </trkpt>
      <trkpt lat="49.26392" lon="1.2877">
        <ele>43</ele>
        <time>2013-05-07T14:14:43Z</time>
      </trkpt>
      <trkpt lat="49.26399" lon="1.28759">
        <ele>43</ele>
        <time>2013-05-07T14:14:53Z</time>
      </trkpt>
      <trkpt lat="49.26406" lon="1.28751">
        <ele>49</ele>
        <time>2013-05-07T14:15:02Z</time>
      </trkpt>
      <trkpt lat="49.26415" lon="1.28745">
        <ele>49</ele>
        <time>2013-05-07T14:15:11Z</time>
      </trkpt>
      <trkpt lat="49.26424" lon="1.28741">
        <ele>49</ele>
        <time>2013-05-07T14:15:20Z</time>
      </trkpt>
      <trkpt lat="49.26433" lon="1.28738">
        <ele>49</ele>
        <time>2013-05-07T14:15:29Z</time>
      </trkpt>
      <trkpt lat="49.26442" lon="1.28735">
        <ele>49</ele>
        <time>2013-05-07T14:15:39Z</time>
      </trkpt>
      <trkpt lat="49.26451" lon="1.2873">
        <ele>49</ele>
        <time>2013-05-07T14:15:47Z</time>
      </trkpt>
      <trkpt lat="49.2646" lon="1.28727">
        <ele>49</ele>
        <time>2013-05-07T14:15:55Z</time>
      </trkpt>
      <trkpt lat="49.26469" lon="1.28723">
        <ele>49</ele>
        <time>2013-05-07T14:16:03Z</time>
      </trkpt>
      <trkpt lat="49.26477" lon="1.2872">
        <ele>49</ele>
        <time>2013-05-07T14:16:11Z</time>
      </trkpt>
      <trkpt lat="49.26487" lon="1.28716">
        <ele>49</ele>
        <time>2013-05-07T14:16:20Z</time>
      </trkpt>
      <trkpt lat="49.26496" lon="1.28712">
        <ele>49</ele>
        <time>2013-05-07T14:16:28Z</time>
      </trkpt>
      <trkpt lat="49.26505" lon="1.28708">
        <ele>49</ele>
        <time>2013-05-07T14:16:38Z</time>
      </trkpt>
      <trkpt lat="49.26514" lon="1.28703">
        <ele>49</ele>
        <time>2013-05-07T14:16:47Z</time>
      </trkpt>
      <trkpt lat="49.26523" lon="1.287">
        <ele>54</ele>
        <time>2013-05-07T14:16:57Z</time>
      </trkpt>
      <trkpt lat="49.26533" lon="1.28696">
        <ele>54</ele>
        <time>2013-05-07T14:17:07Z</time>
      </trkpt>
      <trkpt lat="49.26542" lon="1.28693">
        <ele>54</ele>
        <time>2013-05-07T14:17:17Z</time>
      </trkpt>
      <trkpt lat="49.26551" lon="1.28688">
        <ele>54</ele>
        <time>2013-05-07T14:17:26Z</time>
      </trkpt>
      <trkpt lat="49.2656" lon="1.28685">
        <ele>54</ele>
        <time>2013-05-07T14:17:35Z</time>
      </trkpt>
      <trkpt lat="49.2657" lon="1.28681">
        <ele>54</ele>
        <time>2013-05-07T14:17:44Z</time>
      </trkpt>
      <trkpt lat="49.26579" lon="1.28677">
        <ele>60</ele>
        <time>2013-05-07T14:17:53Z</time>
      </trkpt>
      <trkpt lat="49.26588" lon="1.28674">
        <ele>60</ele>
        <time>2013-05-07T14:18:02Z</time>
      </trkpt>
      <trkpt lat="49.26597" lon="1.28669">
        <ele>60</ele>
        <time>2013-05-07T14:18:12Z</time>
      </trkpt>
      <trkpt lat="49.26606" lon="1.28666">
        <ele>60</ele>
        <time>2013-05-07T14:18:21Z</time>
      </trkpt>
      <trkpt lat="49.26614" lon="1.28662">
        <ele>60</ele>
        <time>2013-05-07T14:18:29Z</time>
      </trkpt>
      <trkpt lat="49.26624" lon="1.28659">
        <ele>60</ele>
        <time>2013-05-07T14:18:38Z</time>
      </trkpt>
      <trkpt lat="49.26634" lon="1.28659">
        <ele>60</ele>
        <time>2013-05-07T14:18:46Z</time>
      </trkpt>
      <trkpt lat="49.26643" lon="1.28661">
        <ele>60</ele>
        <time>2013-05-07T14:18:54Z</time>
      </trkpt>
      <trkpt lat="49.26652" lon="1.28665">
        <ele>60</ele>
        <time>2013-05-07T14:19:02Z</time>
      </trkpt>
      <trkpt lat="49.26661" lon="1.28668">
        <ele>60</ele>
        <time>2013-05-07T14:19:10Z</time>
      </trkpt>
      <trkpt lat="49.2667" lon="1.28672">
        <ele>60</ele>
        <time>2013-05-07T14:19:18Z</time>
      </trkpt>
      <trkpt lat="49.26678" lon="1.28676">
        <ele>60</ele>
        <time>2013-05-07T14:19:26Z</time>
      </trkpt>
      <trkpt lat="49.26688" lon="1.28679">
        <ele>60</ele>
        <time>2013-05-07T14:19:34Z</time>
      </trkpt>
      <trkpt lat="49.26698" lon="1.28681">
        <ele>60</ele>
        <time>2013-05-07T14:19:43Z</time>
      </trkpt>
      <trkpt lat="49.26707" lon="1.28676">
        <ele>60</ele>
        <time>2013-05-07T14:19:52Z</time>
      </trkpt>
      <trkpt lat="49.26713" lon="1.28664">
        <ele>60</ele>
        <time>2013-05-07T14:20:01Z</time>
      </trkpt>
      <trkpt lat="49.26717" lon="1.28651">
        <ele>66</ele>
        <time>2013-05-07T14:20:10Z</time>
      </trkpt>
      <trkpt lat="49.2672" lon="1.28637">
        <ele>66</ele>
        <time>2013-05-07T14:20:20Z</time>
      </trkpt>
      <trkpt lat="49.26724" lon="1.28624">
        <ele>66</ele>
        <time>2013-05-07T14:20:29Z</time>
      </trkpt>
      <trkpt lat="49.26727" lon="1.28609">
        <ele>66</ele>
        <time>2013-05-07T14:20:39Z</time>
      </trkpt>
      <trkpt lat="49.2673" lon="1.28596">
        <ele>71</ele>
        <time>2013-05-07T14:20:48Z</time>
      </trkpt>
      <trkpt lat="49.26734" lon="1.28581">
        <ele>71</ele>
        <time>2013-05-07T14:20:58Z</time>
      </trkpt>
      <trkpt lat="49.26737" lon="1.28568">
        <ele>71</ele>
        <time>2013-05-07T14:21:08Z</time>
      </trkpt>
      <trkpt lat="49.2674" lon="1.28554">
        <ele>71</ele>
        <time>2013-05-07T14:21:17Z</time>
      </trkpt>
      <trkpt lat="49.26743" lon="1.28541">
        <ele>71</ele>
        <time>2013-05-07T14:21:26Z</time>
      </trkpt>
      <trkpt lat="49.26746" lon="1.28527">
        <ele>71</ele>
        <time>2013-05-07T14:21:35Z</time>
      </trkpt>
      <trkpt lat="49.2675" lon="1.28514">
        <ele>77</ele>
        <time>2013-05-07T14:21:45Z</time>
      </trkpt>
      <trkpt lat="49.26753" lon="1.285">
        <ele>77</ele>
        <time>2013-05-07T14:21:55Z</time>
      </trkpt>
      <trkpt lat="49.26756" lon="1.28487">
        <ele>77</ele>
        <time>2013-05-07T14:22:05Z</time>
      </trkpt>
      <trkpt lat="49.26759" lon="1.28474">
        <ele>77</ele>
        <time>2013-05-07T14:22:15Z</time>
      </trkpt>
      <trkpt lat="49.26762" lon="1.2846">
        <ele>83</ele>
        <time>2013-05-07T14:22:25Z</time>
      </trkpt>
      <trkpt lat="49.26765" lon="1.28446">
        <ele>83</ele>
        <time>2013-05-07T14:22:35Z</time>
      </trkpt>
      <trkpt lat="49.26768" lon="1.28432">
        <ele>83</ele>
        <time>2013-05-07T14:22:45Z</time>
      </trkpt>
      <trkpt lat="49.26771" lon="1.28419">
        <ele>83</ele>
        <time>2013-05-07T14:22:55Z</time>
      </trkpt>
      <trkpt lat="49.26773" lon="1.28404">
        <ele>89</ele>
        <time>2013-05-07T14:23:06Z</time>
      </trkpt>
      <trkpt lat="49.26776" lon="1.28391">
        <ele>89</ele>
        <time>2013-05-07T14:23:15Z</time>
      </trkpt>
      <trkpt lat="49.26778" lon="1.28377">
        <ele>89</ele>
        <time>2013-05-07T14:23:25Z</time>
      </trkpt>
      <trkpt lat="49.26781" lon="1.28364">
        <ele>89</ele>
        <time>2013-05-07T14:23:36Z</time>
      </trkpt>
      <trkpt lat="49.26784" lon="1.2835">
        <ele>89</ele>
        <time>2013-05-07T14:23:47Z</time>
      </trkpt>
      <trkpt lat="49.26786" lon="1.28336">
        <ele>96</ele>
        <time>2013-05-07T14:23:59Z</time>
      </trkpt>
      <trkpt lat="49.26788" lon="1.28322">
        <ele>96</ele>
        <time>2013-05-07T14:24:10Z</time>
      </trkpt>
      <trkpt lat="49.26791" lon="1.28307">
        <ele>96</ele>
        <time>2013-05-07T14:24:21Z</time>
      </trkpt>
      <trkpt lat="49.26794" lon="1.28294">
        <ele>96</ele>
        <time>2013-05-07T14:24:32Z</time>
      </trkpt>
      <trkpt lat="49.26797" lon="1.28279">
        <ele>101</ele>
        <time>2013-05-07T14:24:43Z</time>
      </trkpt>
      <trkpt lat="49.268" lon="1.28266">
        <ele>101</ele>
        <time>2013-05-07T14:24:53Z</time>
      </trkpt>
      <trkpt lat="49.26802" lon="1.28253">
        <ele>101</ele>
        <time>2013-05-07T14:25:04Z</time>
      </trkpt>
      <trkpt lat="49.26804" lon="1.28239">
        <ele>101</ele>
        <time>2013-05-07T14:25:14Z</time>
      </trkpt>
      <trkpt lat="49.26807" lon="1.28226">
        <ele>107</ele>
        <time>2013-05-07T14:25:25Z</time>
      </trkpt>
      <trkpt lat="49.26809" lon="1.28212">
        <ele>107</ele>
        <time>2013-05-07T14:25:35Z</time>
      </trkpt>
      <trkpt lat="49.26817" lon="1.28203">
        <ele>107</ele>
        <time>2013-05-07T14:25:45Z</time>
      </trkpt>
      <trkpt lat="49.26827" lon="1.28205">
        <ele>107</ele>
        <time>2013-05-07T14:25:54Z</time>
      </trkpt>
      <trkpt lat="49.26835" lon="1.2821">
        <ele>107</ele>
        <time>2013-05-07T14:26:03Z</time>
      </trkpt>
      <trkpt lat="49.26844" lon="1.28215">
        <ele>107</ele>
        <time>2013-05-07T14:26:11Z</time>
      </trkpt>
      <trkpt lat="49.26854" lon="1.28219">
        <ele>107</ele>
        <time>2013-05-07T14:26:20Z</time>
      </trkpt>
      <trkpt lat="49.26862" lon="1.28227">
        <ele>107</ele>
        <time>2013-05-07T14:26:29Z</time>
      </trkpt>
      <trkpt lat="49.26872" lon="1.28234">
        <ele>107</ele>
        <time>2013-05-07T14:26:38Z</time>
      </trkpt>
      <trkpt lat="49.26881" lon="1.28238">
        <ele>107</ele>
        <time>2013-05-07T14:26:47Z</time>
      </trkpt>
      <trkpt lat="49.2689" lon="1.28243">
        <ele>107</ele>
        <time>2013-05-07T14:26:56Z</time>
      </trkpt>
      <trkpt lat="49.26899" lon="1.28246">
        <ele>107</ele>
        <time>2013-05-07T14:27:04Z</time>
      </trkpt>
      <trkpt lat="49.26908" lon="1.28251">
        <ele>107</ele>
        <time>2013-05-07T14:27:12Z</time>
      </trkpt>
      <trkpt lat="49.26917" lon="1.28255">
        <ele>107</ele>
        <time>2013-05-07T14:27:21Z</time>
      </trkpt>
      <trkpt lat="49.26925" lon="1.28259">
        <ele>107</ele>
        <time>2013-05-07T14:27:30Z</time>
      </trkpt>
      <trkpt lat="49.26935" lon="1.2826">
        <ele>107</ele>
        <time>2013-05-07T14:27:38Z</time>
      </trkpt>
      <trkpt lat="49.26945" lon="1.28261">
        <ele>107</ele>
        <time>2013-05-07T14:27:48Z</time>
      </trkpt>
      <trkpt lat="49.26954" lon="1.2826">
        <ele>107</ele>
        <time>2013-05-07T14:27:57Z</time>
      </trkpt>
      <trkpt lat="49.26964" lon="1.28258">
        <ele>107</ele>
        <time>2013-05-07T14:28:06Z</time>
      </trkpt>
      <trkpt lat="49.26974" lon="1.28259">
        <ele>107</ele>
        <time>2013-05-07T14:28:17Z</time>
      </trkpt>
      <trkpt lat="49.26983" lon="1.28258">
        <ele>107</ele>
        <time>2013-05-07T14:28:26Z</time>
      </trkpt>
      <trkpt lat="49.26993" lon="1.28257">
        <ele>107</ele>
        <time>2013-05-07T14:28:35Z</time>
      </trkpt>
      <trkpt lat="49.27002" lon="1.28255">
        <ele>107</ele>
        <time>2013-05-07T14:28:44Z</time>
      </trkpt>
      <trkpt lat="49.27012" lon="1.28256">
        <ele>114</ele>
        <time>2013-05-07T14:28:54Z</time>
      </trkpt>
      <trkpt lat="49.27022" lon="1.28256">
        <ele>114</ele>
        <time>2013-05-07T14:29:03Z</time>
      </trkpt>
      <trkpt lat="49.27031" lon="1.28258">
        <ele>120</ele>
        <time>2013-05-07T14:29:13Z</time>
      </trkpt>
      <trkpt lat="49.27041" lon="1.28258">
        <ele>120</ele>
        <time>2013-05-07T14:29:22Z</time>
      </trkpt>
      <trkpt lat="49.2705" lon="1.28255">
        <ele>120</ele>
        <time>2013-05-07T14:29:31Z</time>
      </trkpt>
      <trkpt lat="49.2706" lon="1.28253">
        <ele>120</ele>
        <time>2013-05-07T14:29:40Z</time>
      </trkpt>
      <trkpt lat="49.2707" lon="1.28251">
        <ele>120</ele>
        <time>2013-05-07T14:29:50Z</time>
      </trkpt>
      <trkpt lat="49.2708" lon="1.28249">
        <ele>126</ele>
        <time>2013-05-07T14:30:00Z</time>
      </trkpt>
      <trkpt lat="49.2709" lon="1.28247">
        <ele>126</ele>
        <time>2013-05-07T14:30:10Z</time>
      </trkpt>
      <trkpt lat="49.27099" lon="1.28244">
        <ele>126</ele>
        <time>2013-05-07T14:30:18Z</time>
      </trkpt>
      <trkpt lat="49.27109" lon="1.2824">
        <ele>126</ele>
        <time>2013-05-07T14:30:28Z</time>
      </trkpt>
      <trkpt lat="49.27118" lon="1.28236">
        <ele>126</ele>
        <time>2013-05-07T14:30:36Z</time>
      </trkpt>
      <trkpt lat="49.27128" lon="1.28235">
        <ele>126</ele>
        <time>2013-05-07T14:30:46Z</time>
      </trkpt>
      <trkpt lat="49.27136" lon="1.2823">
        <ele>126</ele>
        <time>2013-05-07T14:30:54Z</time>
      </trkpt>
      <trkpt lat="49.27145" lon="1.28224">
        <ele>126</ele>
        <time>2013-05-07T14:31:02Z</time>
      </trkpt>
      <trkpt lat="49.27149" lon="1.2821">
        <ele>118</ele>
        <time>2013-05-07T14:31:10Z</time>
      </trkpt>
      <trkpt lat="49.27148" lon="1.28196">
        <ele>118</ele>
        <time>2013-05-07T14:31:18Z</time>
      </trkpt>
      <trkpt lat="49.27146" lon="1.28181">
        <ele>118</ele>
        <time>2013-05-07T14:31:27Z</time>
      </trkpt>
      <trkpt lat="49.27145" lon="1.28165">
        <ele>118</ele>
        <time>2013-05-07T14:31:37Z</time>
      </trkpt>
      <trkpt lat="49.27142" lon="1.28151">
        <ele>118</ele>
        <time>2013-05-07T14:31:46Z</time>
      </trkpt>
      <trkpt lat="49.27139" lon="1.28137">
        <ele>118</ele>
        <time>2013-05-07T14:31:56Z</time>
      </trkpt>
      <trkpt lat="49.27136" lon="1.28123">
        <ele>118</ele>
        <time>2013-05-07T14:32:05Z</time>
      </trkpt>
      <trkpt lat="49.27131" lon="1.28111">
        <ele>118</ele>
        <time>2013-05-07T14:32:15Z</time>
      </trkpt>
      <trkpt lat="49.27128" lon="1.28098">
        <ele>118</ele>
        <time>2013-05-07T14:32:24Z</time>
      </trkpt>
      <trkpt lat="49.27124" lon="1.28084">
        <ele>118</ele>
        <time>2013-05-07T14:32:33Z</time>
      </trkpt>
      <trkpt lat="49.27121" lon="1.2807">
        <ele>118</ele>
        <time>2013-05-07T14:32:41Z</time>
      </trkpt>
      <trkpt lat="49.27119" lon="1.28057">
        <ele>118</ele>
        <time>2013-05-07T14:32:49Z</time>
      </trkpt>
      <trkpt lat="49.27125" lon="1.28047">
        <ele>118</ele>
        <time>2013-05-07T14:32:59Z</time>
      </trkpt>
      <trkpt lat="49.27135" lon="1.28044">
        <ele>118</ele>
        <time>2013-05-07T14:33:08Z</time>
      </trkpt>
      <trkpt lat="49.27145" lon="1.28041">
        <ele>118</ele>
        <time>2013-05-07T14:33:17Z</time>
      </trkpt>
      <trkpt lat="49.27154" lon="1.2804">
        <ele>118</ele>
        <time>2013-05-07T14:33:26Z</time>
      </trkpt>
      <trkpt lat="49.27164" lon="1.28037">
        <ele>118</ele>
        <time>2013-05-07T14:33:35Z</time>
      </trkpt>
      <trkpt lat="49.27174" lon="1.28035">
        <ele>118</ele>
        <time>2013-05-07T14:33:44Z</time>
      </trkpt>
      <trkpt lat="49.27183" lon="1.28033">
        <ele>118</ele>
        <time>2013-05-07T14:33:52Z</time>
      </trkpt>
      <trkpt lat="49.27193" lon="1.28032">
        <ele>118</ele>
        <time>2013-05-07T14:34:01Z</time>
      </trkpt>
      <trkpt lat="49.27203" lon="1.28029">
        <ele>118</ele>
        <time>2013-05-07T14:34:10Z</time>
      </trkpt>
      <trkpt lat="49.27213" lon="1.28027">
        <ele>118</ele>
        <time>2013-05-07T14:34:19Z</time>
      </trkpt>
      <trkpt lat="49.27223" lon="1.28024">
        <ele>118</ele>
        <time>2013-05-07T14:34:28Z</time>
      </trkpt>
      <trkpt lat="49.27233" lon="1.28023">
        <ele>118</ele>
        <time>2013-05-07T14:34:37Z</time>
      </trkpt>
      <trkpt lat="49.27243" lon="1.28021">
        <ele>118</ele>
        <time>2013-05-07T14:34:46Z</time>
      </trkpt>
      <trkpt lat="49.27253" lon="1.28018">
        <ele>118</ele>
        <time>2013-05-07T14:34:55Z</time>
      </trkpt>
      <trkpt lat="49.27263" lon="1.28016">
        <ele>118</ele>
        <time>2013-05-07T14:35:05Z</time>
      </trkpt>
      <trkpt lat="49.27272" lon="1.28014">
        <ele>118</ele>
        <time>2013-05-07T14:35:14Z</time>
      </trkpt>
      <trkpt lat="49.27282" lon="1.28012">
        <ele>118</ele>
        <time>2013-05-07T14:35:22Z</time>
      </trkpt>
      <trkpt lat="49.27291" lon="1.28011">
        <ele>118</ele>
        <time>2013-05-07T14:35:30Z</time>
      </trkpt>
      <trkpt lat="49.273" lon="1.28009">
        <ele>118</ele>
        <time>2013-05-07T14:35:39Z</time>
      </trkpt>
      <trkpt lat="49.27309" lon="1.28003">
        <ele>118</ele>
        <time>2013-05-07T14:35:48Z</time>
      </trkpt>
      <trkpt lat="49.27317" lon="1.27994">
        <ele>125</ele>
        <time>2013-05-07T14:35:58Z</time>
      </trkpt>
      <trkpt lat="49.27324" lon="1.27985">
        <ele>125</ele>
        <time>2013-05-07T14:36:07Z</time>
      </trkpt>
      <trkpt lat="49.27332" lon="1.27976">
        <ele>125</ele>
        <time>2013-05-07T14:36:16Z</time>
      </trkpt>
      <trkpt lat="49.27339" lon="1.27966">
        <ele>125</ele>
        <time>2013-05-07T14:36:25Z</time>
      </trkpt>
      <trkpt lat="49.27347" lon="1.27957">
        <ele>125</ele>
        <time>2013-05-07T14:36:34Z</time>
      </trkpt>
      <trkpt lat="49.27354" lon="1.27948">
        <ele>125</ele>
        <time>2013-05-07T14:36:42Z</time>
      </trkpt>
      <trkpt lat="49.27362" lon="1.27938">
        <ele>125</ele>
        <time>2013-05-07T14:36:51Z</time>
      </trkpt>
      <trkpt lat="49.2737" lon="1.27929">
        <ele>125</ele>
        <time>2013-05-07T14:37:01Z</time>
      </trkpt>
      <trkpt lat="49.27377" lon="1.2792">
        <ele>125</ele>
        <time>2013-05-07T14:38:03Z</time>
      </trkpt>
      <trkpt lat="49.27386" lon="1.27924">
        <ele>125</ele>
        <time>2013-05-07T14:39:09Z</time>
      </trkpt>
      <trkpt lat="49.27395" lon="1.27929">
        <ele>125</ele>
        <time>2013-05-07T14:39:18Z</time>
      </trkpt>
      <trkpt lat="49.27403" lon="1.27935">
        <ele>125</ele>
        <time>2013-05-07T14:39:26Z</time>
      </trkpt>
      <trkpt lat="49.27413" lon="1.27942">
        <ele>125</ele>
        <time>2013-05-07T14:39:35Z</time>
      </trkpt>
      <trkpt lat="49.27422" lon="1.27948">
        <ele>125</ele>
        <time>2013-05-07T14:39:44Z</time>
      </trkpt>
      <trkpt lat="49.2743" lon="1.27954">
        <ele>125</ele>
        <time>2013-05-07T14:39:52Z</time>
      </trkpt>
      <trkpt lat="49.27439" lon="1.2796">
        <ele>125</ele>
        <time>2013-05-07T14:40:00Z</time>
      </trkpt>
      <trkpt lat="49.27447" lon="1.27966">
        <ele>125</ele>
        <time>2013-05-07T14:40:08Z</time>
      </trkpt>
      <trkpt lat="49.27456" lon="1.27972">
        <ele>125</ele>
        <time>2013-05-07T14:40:16Z</time>
      </trkpt>
      <trkpt lat="49.27465" lon="1.27978">
        <ele>125</ele>
        <time>2013-05-07T14:40:24Z</time>
      </trkpt>
      <trkpt lat="49.27474" lon="1.27984">
        <ele>125</ele>
        <time>2013-05-07T14:40:33Z</time>
      </trkpt>
      <trkpt lat="49.27483" lon="1.2799">
        <ele>125</ele>
        <time>2013-05-07T14:40:41Z</time>
      </trkpt>
      <trkpt lat="49.27491" lon="1.27996">
        <ele>125</ele>
        <time>2013-05-07T14:40:49Z</time>
      </trkpt>
      <trkpt lat="49.275" lon="1.28001">
        <ele>125</ele>
        <time>2013-05-07T14:40:57Z</time>
      </trkpt>
      <trkpt lat="49.2751" lon="1.28005">
        <ele>125</ele>
        <time>2013-05-07T14:41:06Z</time>
      </trkpt>
      <trkpt lat="49.27516" lon="1.27994">
        <ele>125</ele>
        <time>2013-05-07T14:41:16Z</time>
      </trkpt>
      <trkpt lat="49.27521" lon="1.27981">
        <ele>125</ele>
        <time>2013-05-07T14:41:25Z</time>
      </trkpt>
      <trkpt lat="49.27525" lon="1.27967">
        <ele>125</ele>
        <time>2013-05-07T14:41:34Z</time>
      </trkpt>
      <trkpt lat="49.2753" lon="1.27954">
        <ele>125</ele>
        <time>2013-05-07T14:41:42Z</time>
      </trkpt>
      <trkpt lat="49.27533" lon="1.27941">
        <ele>125</ele>
        <time>2013-05-07T14:41:50Z</time>
      </trkpt>
      <trkpt lat="49.27538" lon="1.27928">
        <ele>125</ele>
        <time>2013-05-07T14:41:58Z</time>
      </trkpt>
      <trkpt lat="49.27542" lon="1.27916">
        <ele>125</ele>
        <time>2013-05-07T14:42:06Z</time>
      </trkpt>
      <trkpt lat="49.27546" lon="1.27903">
        <ele>125</ele>
        <time>2013-05-07T14:42:14Z</time>
      </trkpt>
      <trkpt lat="49.27551" lon="1.27891">
        <ele>125</ele>
        <time>2013-05-07T14:42:22Z</time>
      </trkpt>
      <trkpt lat="49.27555" lon="1.27878">
        <ele>125</ele>
        <time>2013-05-07T14:42:30Z</time>
      </trkpt>
      <trkpt lat="49.27559" lon="1.27865">
        <ele>125</ele>
        <time>2013-05-07T14:42:38Z</time>
      </trkpt>
      <trkpt lat="49.27564" lon="1.27852">
        <ele>125</ele>
        <time>2013-05-07T14:42:46Z</time>
      </trkpt>
      <trkpt lat="49.27568" lon="1.27839">
        <ele>125</ele>
        <time>2013-05-07T14:42:55Z</time>
      </trkpt>
      <trkpt lat="49.27572" lon="1.27827">
        <ele>125</ele>
        <time>2013-05-07T14:43:03Z</time>
      </trkpt>
      <trkpt lat="49.27576" lon="1.27814">
        <ele>125</ele>
        <time>2013-05-07T14:43:11Z</time>
      </trkpt>
      <trkpt lat="49.27581" lon="1.27801">
        <ele>125</ele>
        <time>2013-05-07T14:43:19Z</time>
      </trkpt>
      <trkpt lat="49.27585" lon="1.27787">
        <ele>125</ele>
        <time>2013-05-07T14:43:28Z</time>
      </trkpt>
      <trkpt lat="49.2759" lon="1.27774">
        <ele>125</ele>
        <time>2013-05-07T14:43:37Z</time>
      </trkpt>
      <trkpt lat="49.27594" lon="1.27761">
        <ele>125</ele>
        <time>2013-05-07T14:43:45Z</time>
      </trkpt>
      <trkpt lat="49.27598" lon="1.27749">
        <ele>125</ele>
        <time>2013-05-07T14:43:53Z</time>
      </trkpt>
      <trkpt lat="49.27603" lon="1.27736">
        <ele>125</ele>
        <time>2013-05-07T14:44:01Z</time>
      </trkpt>
      <trkpt lat="49.27608" lon="1.27723">
        <ele>125</ele>
        <time>2013-05-07T14:44:09Z</time>
      </trkpt>
      <trkpt lat="49.27612" lon="1.27709">
        <ele>125</ele>
        <time>2013-05-07T14:44:18Z</time>
      </trkpt>
      <trkpt lat="49.27617" lon="1.27696">
        <ele>125</ele>
        <time>2013-05-07T14:44:26Z</time>
      </trkpt>
      <trkpt lat="49.27622" lon="1.27683">
        <ele>125</ele>
        <time>2013-05-07T14:44:35Z</time>
      </trkpt>
      <trkpt lat="49.27626" lon="1.2767">
        <ele>125</ele>
        <time>2013-05-07T14:44:43Z</time>
      </trkpt>
      <trkpt lat="49.27631" lon="1.27657">
        <ele>125</ele>
        <time>2013-05-07T14:44:52Z</time>
      </trkpt>
      <trkpt lat="49.27636" lon="1.27643">
        <ele>125</ele>
        <time>2013-05-07T14:45:01Z</time>
      </trkpt>
      <trkpt lat="49.27641" lon="1.2763">
        <ele>125</ele>
        <time>2013-05-07T14:45:10Z</time>
      </trkpt>
      <trkpt lat="49.27647" lon="1.27619">
        <ele>125</ele>
        <time>2013-05-07T14:45:19Z</time>
      </trkpt>
      <trkpt lat="49.27652" lon="1.27608">
        <ele>125</ele>
        <time>2013-05-07T14:45:35Z</time>
      </trkpt>
      <trkpt lat="49.27654" lon="1.27593">
        <ele>132</ele>
        <time>2013-05-07T14:45:48Z</time>
      </trkpt>
      <trkpt lat="49.27654" lon="1.27579">
        <ele>132</ele>
        <time>2013-05-07T14:46:01Z</time>
      </trkpt>
      <trkpt lat="49.27656" lon="1.27565">
        <ele>132</ele>
        <time>2013-05-07T14:46:11Z</time>
      </trkpt>
      <trkpt lat="49.27658" lon="1.27551">
        <ele>132</ele>
        <time>2013-05-07T14:46:20Z</time>
      </trkpt>
      <trkpt lat="49.27659" lon="1.27537">
        <ele>132</ele>
        <time>2013-05-07T14:46:29Z</time>
      </trkpt>
      <trkpt lat="49.27655" lon="1.27522">
        <ele>137</ele>
        <time>2013-05-07T14:46:42Z</time>
      </trkpt>
      <trkpt lat="49.27652" lon="1.27509">
        <ele>137</ele>
        <time>2013-05-07T14:46:58Z</time>
      </trkpt>
      <trkpt lat="49.27652" lon="1.27493">
        <ele>137</ele>
        <time>2013-05-07T14:47:10Z</time>
      </trkpt>
      <trkpt lat="49.27654" lon="1.27479">
        <ele>130</ele>
        <time>2013-05-07T14:47:22Z</time>
      </trkpt>
      <trkpt lat="49.27655" lon="1.27464">
        <ele>122</ele>
        <time>2013-05-07T14:47:36Z</time>
      </trkpt>
      <trkpt lat="49.27657" lon="1.27449">
        <ele>122</ele>
        <time>2013-05-07T14:47:49Z</time>
      </trkpt>
      <trkpt lat="49.27661" lon="1.27437">
        <ele>122</ele>
        <time>2013-05-07T14:47:58Z</time>
      </trkpt>
      <trkpt lat="49.27664" lon="1.27423">
        <ele>117</ele>
        <time>2013-05-07T14:48:09Z</time>
      </trkpt>
      <trkpt lat="49.27668" lon="1.27409">
        <ele>117</ele>
        <time>2013-05-07T14:48:23Z</time>
      </trkpt>
      <trkpt lat="49.27672" lon="1.27395">
        <ele>117</ele>
        <time>2013-05-07T14:48:32Z</time>
      </trkpt>
      <trkpt lat="49.27678" lon="1.27383">
        <ele>117</ele>
        <time>2013-05-07T14:48:43Z</time>
      </trkpt>
      <trkpt lat="49.27684" lon="1.27371">
        <ele>110</ele>
        <time>2013-05-07T14:48:52Z</time>
      </trkpt>
      <trkpt lat="49.27688" lon="1.27359">
        <ele>110</ele>
        <time>2013-05-07T14:49:02Z</time>
      </trkpt>
      <trkpt lat="49.27691" lon="1.27344">
        <ele>110</ele>
        <time>2013-05-07T14:49:12Z</time>
      </trkpt>
      <trkpt lat="49.27694" lon="1.27331">
        <ele>110</ele>
        <time>2013-05-07T14:49:23Z</time>
      </trkpt>
      <trkpt lat="49.27688" lon="1.2732">
        <ele>110</ele>
        <time>2013-05-07T14:49:40Z</time>
      </trkpt>
      <trkpt lat="49.2769" lon="1.27306">
        <ele>98</ele>
        <time>2013-05-07T14:52:44Z</time>
      </trkpt>
      <trkpt lat="49.27694" lon="1.27319">
        <ele>98</ele>
        <time>2013-05-07T14:53:28Z</time>
      </trkpt>
      <trkpt lat="49.27701" lon="1.27309">
        <ele>98</ele>
        <time>2013-05-07T14:53:51Z</time>
      </trkpt>
      <trkpt lat="49.27704" lon="1.27324">
        <ele>98</ele>
        <time>2013-05-07T14:54:09Z</time>
      </trkpt>
      <trkpt lat="49.27706" lon="1.27339">
        <ele>98</ele>
        <time>2013-05-07T14:54:21Z</time>
      </trkpt>
      <trkpt lat="49.27708" lon="1.27353">
        <ele>98</ele>
        <time>2013-05-07T14:54:35Z</time>
      </trkpt>
      <trkpt lat="49.27708" lon="1.27369">
        <ele>98</ele>
        <time>2013-05-07T14:54:46Z</time>
      </trkpt>
      <trkpt lat="49.2771" lon="1.27385">
        <ele>98</ele>
        <time>2013-05-07T14:54:57Z</time>
      </trkpt>
      <trkpt lat="49.27712" lon="1.27398">
        <ele>98</ele>
        <time>2013-05-07T14:55:05Z</time>
      </trkpt>
      <trkpt lat="49.27715" lon="1.27412">
        <ele>98</ele>
        <time>2013-05-07T14:55:15Z</time>
      </trkpt>
      <trkpt lat="49.27716" lon="1.27426">
        <ele>90</ele>
        <time>2013-05-07T14:55:27Z</time>
      </trkpt>
      <trkpt lat="49.27718" lon="1.2744">
        <ele>90</ele>
        <time>2013-05-07T14:55:37Z</time>
      </trkpt>
      <trkpt lat="49.2772" lon="1.27455">
        <ele>98</ele>
        <time>2013-05-07T14:55:49Z</time>
      </trkpt>
      <trkpt lat="49.27726" lon="1.27466">
        <ele>98</ele>
        <time>2013-05-07T14:56:05Z</time>
      </trkpt>
      <trkpt lat="49.27732" lon="1.27455">
        <ele>89</ele>
        <time>2013-05-07T14:56:21Z</time>
      </trkpt>
      <trkpt lat="49.27734" lon="1.2744">
        <ele>89</ele>
        <time>2013-05-07T14:56:31Z</time>
      </trkpt>
      <trkpt lat="49.27741" lon="1.27432">
        <ele>89</ele>
        <time>2013-05-07T14:56:36Z</time>
      </trkpt>
      <trkpt lat="49.27747" lon="1.2742">
        <ele>89</ele>
        <time>2013-05-07T14:56:44Z</time>
      </trkpt>
      <trkpt lat="49.27751" lon="1.27406">
        <ele>89</ele>
        <time>2013-05-07T14:56:56Z</time>
      </trkpt>
      <trkpt lat="49.27755" lon="1.27394">
        <ele>89</ele>
        <time>2013-05-07T14:57:04Z</time>
      </trkpt>
      <trkpt lat="49.27758" lon="1.2738">
        <ele>89</ele>
        <time>2013-05-07T14:57:16Z</time>
      </trkpt>
      <trkpt lat="49.27758" lon="1.27366">
        <ele>89</ele>
        <time>2013-05-07T14:57:24Z</time>
      </trkpt>
      <trkpt lat="49.27761" lon="1.27352">
        <ele>79</ele>
        <time>2013-05-07T14:57:34Z</time>
      </trkpt>
      <trkpt lat="49.27765" lon="1.27339">
        <ele>79</ele>
        <time>2013-05-07T14:57:43Z</time>
      </trkpt>
      <trkpt lat="49.27771" lon="1.27327">
        <ele>79</ele>
        <time>2013-05-07T14:57:51Z</time>
      </trkpt>
      <trkpt lat="49.27772" lon="1.27313">
        <ele>79</ele>
        <time>2013-05-07T14:58:03Z</time>
      </trkpt>
      <trkpt lat="49.27769" lon="1.27299">
        <ele>67</ele>
        <time>2013-05-07T14:58:12Z</time>
      </trkpt>
      <trkpt lat="49.27778" lon="1.27305">
        <ele>55</ele>
        <time>2013-05-07T14:58:41Z</time>
      </trkpt>
      <trkpt lat="49.27788" lon="1.27307">
        <ele>55</ele>
        <time>2013-05-07T14:59:02Z</time>
      </trkpt>
      <trkpt lat="49.27798" lon="1.27304">
        <ele>61</ele>
        <time>2013-05-07T14:59:18Z</time>
      </trkpt>
      <trkpt lat="49.278" lon="1.2729">
        <ele>61</ele>
        <time>2013-05-07T14:59:41Z</time>
      </trkpt>
      <trkpt lat="49.27802" lon="1.27275">
        <ele>53</ele>
        <time>2013-05-07T15:00:01Z</time>
      </trkpt>
      <trkpt lat="49.27809" lon="1.27266">
        <ele>53</ele>
        <time>2013-05-07T15:00:09Z</time>
      </trkpt>
      <trkpt lat="49.27812" lon="1.27253">
        <ele>46</ele>
        <time>2013-05-07T15:00:24Z</time>
      </trkpt>
      <trkpt lat="49.27818" lon="1.2724">
        <ele>46</ele>
        <time>2013-05-07T15:00:34Z</time>
      </trkpt>
      <trkpt lat="49.27824" lon="1.27227">
        <ele>46</ele>
        <time>2013-05-07T15:00:47Z</time>
      </trkpt>
      <trkpt lat="49.27828" lon="1.27214">
        <ele>40</ele>
        <time>2013-05-07T15:00:58Z</time>
      </trkpt>
      <trkpt lat="49.27829" lon="1.272">
        <ele>40</ele>
        <time>2013-05-07T15:01:13Z</time>
      </trkpt>
      <trkpt lat="49.27834" lon="1.27187">
        <ele>40</ele>
        <time>2013-05-07T15:01:25Z</time>
      </trkpt>
      <trkpt lat="49.27841" lon="1.27178">
        <ele>34</ele>
        <time>2013-05-07T15:01:41Z</time>
      </trkpt>
      <trkpt lat="49.27851" lon="1.27175">
        <ele>34</ele>
        <time>2013-05-07T15:01:52Z</time>
      </trkpt>
      <trkpt lat="49.2786" lon="1.27172">
        <ele>34</ele>
        <time>2013-05-07T15:02:07Z</time>
      </trkpt>
      <trkpt lat="49.27868" lon="1.27165">
        <ele>27</ele>
        <time>2013-05-07T15:02:25Z</time>
      </trkpt>
      <trkpt lat="49.27877" lon="1.2716">
        <ele>27</ele>
        <time>2013-05-07T15:02:36Z</time>
      </trkpt>
      <trkpt lat="49.27887" lon="1.27158">
        <ele>27</ele>
        <time>2013-05-07T15:02:46Z</time>
      </trkpt>
      <trkpt lat="49.27896" lon="1.27157">
        <ele>27</ele>
        <time>2013-05-07T15:03:02Z</time>
      </trkpt>
      <trkpt lat="49.27906" lon="1.27155">
        <ele>27</ele>
        <time>2013-05-07T15:03:13Z</time>
      </trkpt>
      <trkpt lat="49.27915" lon="1.27157">
        <ele>27</ele>
        <time>2013-05-07T15:03:25Z</time>
      </trkpt>
      <trkpt lat="49.27925" lon="1.27156">
        <ele>27</ele>
        <time>2013-05-07T15:03:38Z</time>
      </trkpt>
      <trkpt lat="49.27933" lon="1.27152">
        <ele>27</ele>
        <time>2013-05-07T15:03:48Z</time>
      </trkpt>
      <trkpt lat="49.27943" lon="1.2715">
        <ele>27</ele>
        <time>2013-05-07T15:03:59Z</time>
      </trkpt>
      <trkpt lat="49.27952" lon="1.27151">
        <ele>27</ele>
        <time>2013-05-07T15:04:09Z</time>
      </trkpt>
      <trkpt lat="49.27962" lon="1.27152">
        <ele>27</ele>
        <time>2013-05-07T15:04:19Z</time>
      </trkpt>
      <trkpt lat="49.27972" lon="1.27155">
        <ele>27</ele>
        <time>2013-05-07T15:04:31Z</time>
      </trkpt>
      <trkpt lat="49.27982" lon="1.27155">
        <ele>27</ele>
        <time>2013-05-07T15:04:43Z</time>
      </trkpt>
      <trkpt lat="49.27991" lon="1.27155">
        <ele>33</ele>
        <time>2013-05-07T15:04:56Z</time>
      </trkpt>
      <trkpt lat="49.28" lon="1.27155">
        <ele>33</ele>
        <time>2013-05-07T15:05:08Z</time>
      </trkpt>
      <trkpt lat="49.2801" lon="1.27155">
        <ele>33</ele>
        <time>2013-05-07T15:05:17Z</time>
      </trkpt>
      <trkpt lat="49.28019" lon="1.27156">
        <ele>33</ele>
        <time>2013-05-07T15:05:27Z</time>
      </trkpt>
      <trkpt lat="49.28029" lon="1.27157">
        <ele>33</ele>
        <time>2013-05-07T15:05:40Z</time>
      </trkpt>
      <trkpt lat="49.28039" lon="1.27155">
        <ele>27</ele>
        <time>2013-05-07T15:05:55Z</time>
      </trkpt>
      <trkpt lat="49.28048" lon="1.27154">
        <ele>27</ele>
        <time>2013-05-07T15:06:16Z</time>
      </trkpt>
      <trkpt lat="49.28057" lon="1.27151">
        <ele>27</ele>
        <time>2013-05-07T15:06:53Z</time>
      </trkpt>
      <trkpt lat="49.28063" lon="1.2714">
        <ele>27</ele>
        <time>2013-05-07T15:07:33Z</time>
      </trkpt>
      <trkpt lat="49.28058" lon="1.27129">
        <ele>27</ele>
        <time>2013-05-07T15:07:45Z</time>
      </trkpt>
      <trkpt lat="49.28053" lon="1.27117">
        <ele>19</ele>
        <time>2013-05-07T15:08:00Z</time>
      </trkpt>
      <trkpt lat="49.28046" lon="1.27107">
        <ele>12</ele>
        <time>2013-05-07T15:08:21Z</time>
      </trkpt>
      <trkpt lat="49.28051" lon="1.27094">
        <ele>12</ele>
        <time>2013-05-07T15:09:01Z</time>
      </trkpt>
      <trkpt lat="49.2806" lon="1.27091">
        <ele>12</ele>
        <time>2013-05-07T15:09:11Z</time>
      </trkpt>
      <trkpt lat="49.2807" lon="1.2709">
        <ele>12</ele>
        <time>2013-05-07T15:09:19Z</time>
      </trkpt>
      <trkpt lat="49.2808" lon="1.27089">
        <ele>12</ele>
        <time>2013-05-07T15:09:28Z</time>
      </trkpt>
      <trkpt lat="49.2809" lon="1.27087">
        <ele>12</ele>
        <time>2013-05-07T15:09:37Z</time>
      </trkpt>
      <trkpt lat="49.281" lon="1.27087">
        <ele>12</ele>
        <time>2013-05-07T15:09:45Z</time>
      </trkpt>
      <trkpt lat="49.28109" lon="1.27085">
        <ele>12</ele>
        <time>2013-05-07T15:09:53Z</time>
      </trkpt>
      <trkpt lat="49.28119" lon="1.27082">
        <ele>12</ele>
        <time>2013-05-07T15:10:01Z</time>
      </trkpt>
      <trkpt lat="49.28129" lon="1.27079">
        <ele>12</ele>
        <time>2013-05-07T15:10:09Z</time>
      </trkpt>
      <trkpt lat="49.28139" lon="1.27077">
        <ele>12</ele>
        <time>2013-05-07T15:10:17Z</time>
      </trkpt>
      <trkpt lat="49.28149" lon="1.27075">
        <ele>12</ele>
        <time>2013-05-07T15:10:26Z</time>
      </trkpt>
      <trkpt lat="49.28158" lon="1.27072">
        <ele>12</ele>
        <time>2013-05-07T15:10:34Z</time>
      </trkpt>
      <trkpt lat="49.28167" lon="1.27069">
        <ele>12</ele>
        <time>2013-05-07T15:10:41Z</time>
      </trkpt>
      <trkpt lat="49.28177" lon="1.27068">
        <ele>7</ele>
        <time>2013-05-07T15:10:48Z</time>
      </trkpt>
      <trkpt lat="49.28186" lon="1.27065">
        <ele>7</ele>
        <time>2013-05-07T15:10:56Z</time>
      </trkpt>
      <trkpt lat="49.28196" lon="1.27061">
        <ele>7</ele>
        <time>2013-05-07T15:11:04Z</time>
      </trkpt>
      <trkpt lat="49.28206" lon="1.27059">
        <ele>7</ele>
        <time>2013-05-07T15:11:12Z</time>
      </trkpt>
      <trkpt lat="49.28216" lon="1.27055">
        <ele>7</ele>
        <time>2013-05-07T15:11:20Z</time>
      </trkpt>
      <trkpt lat="49.28226" lon="1.27052">
        <ele>7</ele>
        <time>2013-05-07T15:11:28Z</time>
      </trkpt>
      <trkpt lat="49.28235" lon="1.27051">
        <ele>7</ele>
        <time>2013-05-07T15:11:35Z</time>
      </trkpt>
      <trkpt lat="49.28244" lon="1.27047">
        <ele>7</ele>
        <time>2013-05-07T15:11:43Z</time>
      </trkpt>
      <trkpt lat="49.28254" lon="1.27045">
        <ele>7</ele>
        <time>2013-05-07T15:11:50Z</time>
      </trkpt>
      <trkpt lat="49.28264" lon="1.27043">
        <ele>7</ele>
        <time>2013-05-07T15:11:58Z</time>
      </trkpt>
      <trkpt lat="49.28273" lon="1.27042">
        <ele>7</ele>
        <time>2013-05-07T15:12:05Z</time>
      </trkpt>
      <trkpt lat="49.28283" lon="1.2704">
        <ele>7</ele>
        <time>2013-05-07T15:12:14Z</time>
      </trkpt>
      <trkpt lat="49.28294" lon="1.27038">
        <ele>7</ele>
        <time>2013-05-07T15:12:22Z</time>
      </trkpt>
      <trkpt lat="49.28304" lon="1.27037">
        <ele>7</ele>
        <time>2013-05-07T15:12:30Z</time>
      </trkpt>
      <trkpt lat="49.28314" lon="1.27036">
        <ele>7</ele>
        <time>2013-05-07T15:12:38Z</time>
      </trkpt>
      <trkpt lat="49.28324" lon="1.27035">
        <ele>7</ele>
        <time>2013-05-07T15:12:46Z</time>
      </trkpt>
      <trkpt lat="49.28334" lon="1.27034">
        <ele>7</ele>
        <time>2013-05-07T15:12:54Z</time>
      </trkpt>
      <trkpt lat="49.28344" lon="1.27034">
        <ele>7</ele>
        <time>2013-05-07T15:13:02Z</time>
      </trkpt>
      <trkpt lat="49.28354" lon="1.27033">
        <ele>7</ele>
        <time>2013-05-07T15:13:09Z</time>
      </trkpt>
      <trkpt lat="49.28363" lon="1.27033">
        <ele>7</ele>
        <time>2013-05-07T15:13:17Z</time>
      </trkpt>
      <trkpt lat="49.28373" lon="1.27032">
        <ele>7</ele>
        <time>2013-05-07T15:13:25Z</time>
      </trkpt>
      <trkpt lat="49.28382" lon="1.27033">
        <ele>7</ele>
        <time>2013-05-07T15:13:33Z</time>
      </trkpt>
      <trkpt lat="49.28392" lon="1.27031">
        <ele>7</ele>
        <time>2013-05-07T15:13:41Z</time>
      </trkpt>
      <trkpt lat="49.28402" lon="1.27031">
        <ele>7</ele>
        <time>2013-05-07T15:13:49Z</time>
      </trkpt>
      <trkpt lat="49.28412" lon="1.27031">
        <ele>7</ele>
        <time>2013-05-07T15:13:57Z</time>
      </trkpt>
      <trkpt lat="49.28422" lon="1.27031">
        <ele>7</ele>
        <time>2013-05-07T15:14:05Z</time>
      </trkpt>
      <trkpt lat="49.28432" lon="1.27031">
        <ele>7</ele>
        <time>2013-05-07T15:14:13Z</time>
      </trkpt>
      <trkpt lat="49.28442" lon="1.27031">
        <ele>7</ele>
        <time>2013-05-07T15:14:21Z</time>
      </trkpt>
      <trkpt lat="49.28452" lon="1.27031">
        <ele>7</ele>
        <time>2013-05-07T15:14:29Z</time>
      </trkpt>
      <trkpt lat="49.28462" lon="1.27031">
        <ele>7</ele>
        <time>2013-05-07T15:14:37Z</time>
      </trkpt>
      <trkpt lat="49.28471" lon="1.27031">
        <ele>7</ele>
        <time>2013-05-07T15:14:45Z</time>
      </trkpt>
      <trkpt lat="49.28481" lon="1.27031">
        <ele>7</ele>
        <time>2013-05-07T15:14:53Z</time>
      </trkpt>
      <trkpt lat="49.28491" lon="1.27031">
        <ele>7</ele>
        <time>2013-05-07T15:15:01Z</time>
      </trkpt>
    </trkseg>
  </trk>
</gpx>